<?xml version='1.0' encoding='UTF-8'?><gpx version="1.1" creator="JPX - https://github.com/jenetics/jpx" xmlns="http://www.topografix.com/GPX/1/1"><trk><trkseg><trkpt lat="41.54472764620217" lon="21.423517125102467"><ele>667.0</ele><time>2026-05-04T11:37:56.986Z</time></trkpt><trkpt lat="41.544818828672" lon="21.42361164825492"><ele>667.0</ele><time>2026-05-04T11:37:58.997Z</time></trkpt><trkpt lat="41.54487925301175" lon="21.42364133446745"><ele>667.0</ele><time>2026-05-04T11:37:59.997Z</time></trkpt><trkpt lat="41.544945199388735" lon="21.423673733634793"><ele>667.0</ele><time>2026-05-04T11:38:00.997Z</time></trkpt><trkpt lat="41.54501419705745" lon="21.423707631962213"><ele>667.0</ele><time>2026-05-04T11:38:02Z</time></trkpt><trkpt lat="41.54508282711572" lon="21.423741349619224"><ele>667.0</ele><time>2026-05-04T11:38:03Z</time></trkpt><trkpt lat="41.545152978034636" lon="21.42377569156542"><ele>667.0</ele><time>2026-05-04T11:38:04Z</time></trkpt><trkpt lat="41.54521600941205" lon="21.42380622609023"><ele>667.0</ele><time>2026-05-04T11:38:05Z</time></trkpt><trkpt lat="41.5453122562961" lon="21.423848717655325"><ele>667.0</ele><time>2026-05-04T11:38:07Z</time></trkpt><trkpt lat="41.545380949553824" lon="21.423879056362782"><ele>667.0</ele><time>2026-05-04T11:38:09Z</time></trkpt><trkpt lat="41.54545141922422" lon="21.423876917968208"><ele>667.0</ele><time>2026-05-04T11:38:27Z</time></trkpt><trkpt lat="41.545547756167736" lon="21.42395272727498"><ele>667.0</ele><time>2026-05-04T11:38:28Z</time></trkpt><trkpt lat="41.545662320503176" lon="21.424003325132635"><ele>667.3333333333334</ele><time>2026-05-04T11:38:29Z</time></trkpt><trkpt lat="41.54579842820705" lon="21.4240548828262"><ele>667.6666666666666</ele><time>2026-05-04T11:38:30Z</time></trkpt><trkpt lat="41.54594450464629" lon="21.42410640609129"><ele>668.0</ele><time>2026-05-04T11:38:31Z</time></trkpt><trkpt lat="41.54609676174076" lon="21.424160109433167"><ele>668.6666666666666</ele><time>2026-05-04T11:38:32Z</time></trkpt><trkpt lat="41.546260088140144" lon="21.424207465362393"><ele>669.3333333333334</ele><time>2026-05-04T11:38:33Z</time></trkpt><trkpt lat="41.54641854813361" lon="21.424246641787033"><ele>670.0</ele><time>2026-05-04T11:38:34Z</time></trkpt><trkpt lat="41.54658213255882" lon="21.424262457457747"><ele>670.0</ele><time>2026-05-04T11:38:35Z</time></trkpt><trkpt lat="41.54674331743385" lon="21.424317067611486"><ele>670.0</ele><time>2026-05-04T11:38:36Z</time></trkpt><trkpt lat="41.54691657227919" lon="21.424342983880855"><ele>670.0</ele><time>2026-05-04T11:38:37Z</time></trkpt><trkpt lat="41.54709764055255" lon="21.424366839764193"><ele>670.0</ele><time>2026-05-04T11:38:38Z</time></trkpt><trkpt lat="41.54728571496469" lon="21.424369509931893"><ele>670.0</ele><time>2026-05-04T11:38:39Z</time></trkpt><trkpt lat="41.547469003603105" lon="21.424414565624538"><ele>670.0</ele><time>2026-05-04T11:38:40Z</time></trkpt><trkpt lat="41.547635985285076" lon="21.424436025308484"><ele>670.0</ele><time>2026-05-04T11:38:41Z</time></trkpt><trkpt lat="41.5477878182817" lon="21.424453098953922"><ele>670.0</ele><time>2026-05-04T11:38:42Z</time></trkpt><trkpt lat="41.54792914360253" lon="21.424459687290884"><ele>670.0</ele><time>2026-05-04T11:38:43Z</time></trkpt><trkpt lat="41.54806364728066" lon="21.424443727228567"><ele>670.0</ele><time>2026-05-04T11:38:44Z</time></trkpt><trkpt lat="41.54818343797836" lon="21.424433038035115"><ele>670.75</ele><time>2026-05-04T11:38:45Z</time></trkpt><trkpt lat="41.54830976229751" lon="21.424427636881592"><ele>671.5</ele><time>2026-05-04T11:38:46Z</time></trkpt><trkpt lat="41.54843073224392" lon="21.424422464659635"><ele>672.25</ele><time>2026-05-04T11:38:47Z</time></trkpt><trkpt lat="41.54855162309369" lon="21.42440481191787"><ele>673.0</ele><time>2026-05-04T11:38:48Z</time></trkpt><trkpt lat="41.548671514359455" lon="21.424384552875512"><ele>673.25</ele><time>2026-05-04T11:38:49Z</time></trkpt><trkpt lat="41.54879032879731" lon="21.424364302944007"><ele>673.5</ele><time>2026-05-04T11:38:50Z</time></trkpt><trkpt lat="41.54890564300016" lon="21.42434461582473"><ele>673.75</ele><time>2026-05-04T11:38:51Z</time></trkpt><trkpt lat="41.54901632266019" lon="21.42432571994641"><ele>674.0</ele><time>2026-05-04T11:38:52Z</time></trkpt><trkpt lat="41.54912656190605" lon="21.424306900938962"><ele>674.0</ele><time>2026-05-04T11:38:53Z</time></trkpt><trkpt lat="41.549236767219014" lon="21.424288086055828"><ele>674.0</ele><time>2026-05-04T11:38:54Z</time></trkpt><trkpt lat="41.549349403864234" lon="21.424268856078495"><ele>674.0</ele><time>2026-05-04T11:38:55Z</time></trkpt><trkpt lat="41.549463782979664" lon="21.42424932861447"><ele>674.0</ele><time>2026-05-04T11:38:56Z</time></trkpt><trkpt lat="41.54957978666254" lon="21.42423383965821"><ele>675.0</ele><time>2026-05-04T11:38:57Z</time></trkpt><trkpt lat="41.54970279237267" lon="21.42422025087224"><ele>676.0</ele><time>2026-05-04T11:38:58Z</time></trkpt><trkpt lat="41.54982844334605" lon="21.424206454909463"><ele>677.0</ele><time>2026-05-04T11:38:59Z</time></trkpt><trkpt lat="41.54995832830217" lon="21.424192194047468"><ele>678.0</ele><time>2026-05-04T11:39:00Z</time></trkpt><trkpt lat="41.55008433670151" lon="21.424209268208802"><ele>678.0</ele><time>2026-05-04T11:39:01Z</time></trkpt><trkpt lat="41.55020724757086" lon="21.424233003731523"><ele>678.0</ele><time>2026-05-04T11:39:01.999Z</time></trkpt><trkpt lat="41.5503335983884" lon="21.4242706181232"><ele>678.0</ele><time>2026-05-04T11:39:02.999Z</time></trkpt><trkpt lat="41.55046528163744" lon="21.424309889127407"><ele>678.0</ele><time>2026-05-04T11:39:03.999Z</time></trkpt><trkpt lat="41.550602683261715" lon="21.424336503445357"><ele>678.5</ele><time>2026-05-04T11:39:04.999Z</time></trkpt><trkpt lat="41.550742740125244" lon="21.424363100160612"><ele>679.0</ele><time>2026-05-04T11:39:05.999Z</time></trkpt><trkpt lat="41.55087857132241" lon="21.424388894426347"><ele>679.5</ele><time>2026-05-04T11:39:06.999Z</time></trkpt><trkpt lat="41.551016188358915" lon="21.424419433644694"><ele>680.0</ele><time>2026-05-04T11:39:07.999Z</time></trkpt><trkpt lat="41.551153585535516" lon="21.424451125861683"><ele>680.0</ele><time>2026-05-04T11:39:08.999Z</time></trkpt><trkpt lat="41.55129036299598" lon="21.424482675106972"><ele>680.0</ele><time>2026-05-04T11:39:09.999Z</time></trkpt><trkpt lat="41.55141866519735" lon="21.424512269461303"><ele>680.0</ele><time>2026-05-04T11:39:10.999Z</time></trkpt><trkpt lat="41.55154703928546" lon="21.424547677142648"><ele>680.0</ele><time>2026-05-04T11:39:11.999Z</time></trkpt><trkpt lat="41.55167428195436" lon="21.424587628528187"><ele>680.0</ele><time>2026-05-04T11:39:12.999Z</time></trkpt><trkpt lat="41.5517975430064" lon="21.424626329712385"><ele>680.0</ele><time>2026-05-04T11:39:13.999Z</time></trkpt><trkpt lat="41.55192181024437" lon="21.42466534690313"><ele>680.0</ele><time>2026-05-04T11:39:14.999Z</time></trkpt><trkpt lat="41.5520368633176" lon="21.4247162358197"><ele>680.0</ele><time>2026-05-04T11:39:15.999Z</time></trkpt><trkpt lat="41.55215164439308" lon="21.42476519711361"><ele>680.6</ele><time>2026-05-04T11:39:16.999Z</time></trkpt><trkpt lat="41.55225949296053" lon="21.424811136279537"><ele>681.2</ele><time>2026-05-04T11:39:17.999Z</time></trkpt><trkpt lat="41.552355787412274" lon="21.424852153840813"><ele>681.8</ele><time>2026-05-04T11:39:18.999Z</time></trkpt><trkpt lat="41.55243474408798" lon="21.424885786213522"><ele>682.4</ele><time>2026-05-04T11:39:19.999Z</time></trkpt><trkpt lat="41.552551316731545" lon="21.424919251602873"><ele>683.0</ele><time>2026-05-04T11:39:21.999Z</time></trkpt><trkpt lat="41.552680068494226" lon="21.424941579092984"><ele>683.0</ele><time>2026-05-04T11:39:23.999Z</time></trkpt><trkpt lat="41.552753349908606" lon="21.424954265157282"><ele>683.0</ele><time>2026-05-04T11:39:24.999Z</time></trkpt><trkpt lat="41.55284398211636" lon="21.424969954868438"><ele>683.0</ele><time>2026-05-04T11:39:25.999Z</time></trkpt><trkpt lat="41.55295789913358" lon="21.424985999518814"><ele>683.0</ele><time>2026-05-04T11:39:26.999Z</time></trkpt><trkpt lat="41.553083152906744" lon="21.425000770207376"><ele>683.0</ele><time>2026-05-04T11:39:27.999Z</time></trkpt><trkpt lat="41.55321171226926" lon="21.425015930463037"><ele>683.5</ele><time>2026-05-04T11:39:28.999Z</time></trkpt><trkpt lat="41.55334470091552" lon="21.42499439266541"><ele>684.0</ele><time>2026-05-04T11:39:29.999Z</time></trkpt><trkpt lat="41.55347298772177" lon="21.424968997328"><ele>684.5</ele><time>2026-05-04T11:39:30.999Z</time></trkpt><trkpt lat="41.55359995834399" lon="21.42493577384251"><ele>685.0</ele><time>2026-05-04T11:39:31.999Z</time></trkpt><trkpt lat="41.553727290056734" lon="21.42490193230575"><ele>685.75</ele><time>2026-05-04T11:39:32.999Z</time></trkpt><trkpt lat="41.55385625714997" lon="21.424872976780534"><ele>686.5</ele><time>2026-05-04T11:39:33.999Z</time></trkpt><trkpt lat="41.55398736285479" lon="21.424847140500102"><ele>687.25</ele><time>2026-05-04T11:39:34.999Z</time></trkpt><trkpt lat="41.5541188279945" lon="21.42482123338305"><ele>688.0</ele><time>2026-05-04T11:39:35.999Z</time></trkpt><trkpt lat="41.55425310216498" lon="21.424794531146098"><ele>688.0</ele><time>2026-05-04T11:39:36.999Z</time></trkpt><trkpt lat="41.554377876476856" lon="21.42477524262121"><ele>688.0</ele><time>2026-05-04T11:39:37.999Z</time></trkpt><trkpt lat="41.554498937135136" lon="21.424758345826284"><ele>688.0</ele><time>2026-05-04T11:39:38.999Z</time></trkpt><trkpt lat="41.55461803956284" lon="21.42474172232514"><ele>688.0</ele><time>2026-05-04T11:39:39.999Z</time></trkpt><trkpt lat="41.55472875761048" lon="21.424726309197084"><ele>688.0</ele><time>2026-05-04T11:39:40.999Z</time></trkpt><trkpt lat="41.55482853096521" lon="21.424703616220413"><ele>688.0</ele><time>2026-05-04T11:39:41.999Z</time></trkpt><trkpt lat="41.55491600058273" lon="21.42468144962371"><ele>688.0</ele><time>2026-05-04T11:39:42.999Z</time></trkpt><trkpt lat="41.55499940264613" lon="21.424634479421684"><ele>688.0</ele><time>2026-05-04T11:39:43.999Z</time></trkpt><trkpt lat="41.55507631389769" lon="21.424568458391157"><ele>688.0</ele><time>2026-05-04T11:39:44.999Z</time></trkpt><trkpt lat="41.55514448986802" lon="21.42449400919799"><ele>688.0</ele><time>2026-05-04T11:39:45.999Z</time></trkpt><trkpt lat="41.555206892670114" lon="21.42439535201313"><ele>688.0</ele><time>2026-05-04T11:39:46.999Z</time></trkpt><trkpt lat="41.55526397501971" lon="21.42428962877891"><ele>688.0</ele><time>2026-05-04T11:39:47.999Z</time></trkpt><trkpt lat="41.55531753410947" lon="21.424190431086473"><ele>688.0</ele><time>2026-05-04T11:39:48.999Z</time></trkpt><trkpt lat="41.555360400403345" lon="21.424084889971045"><ele>688.0</ele><time>2026-05-04T11:39:49.999Z</time></trkpt><trkpt lat="41.555399248003845" lon="21.423984573482738"><ele>688.2</ele><time>2026-05-04T11:39:50.999Z</time></trkpt><trkpt lat="41.55544020880482" lon="21.423878792853053"><ele>688.4</ele><time>2026-05-04T11:39:51.999Z</time></trkpt><trkpt lat="41.55548293451215" lon="21.42375907657984"><ele>688.6</ele><time>2026-05-04T11:39:52.999Z</time></trkpt><trkpt lat="41.55552549506327" lon="21.423623284775736"><ele>688.8000000000001</ele><time>2026-05-04T11:39:53.999Z</time></trkpt><trkpt lat="41.5555700711714" lon="21.42347825461261"><ele>689.0</ele><time>2026-05-04T11:39:54.999Z</time></trkpt><trkpt lat="41.555613872258455" lon="21.423341634449372"><ele>688.6</ele><time>2026-05-04T11:39:55.999Z</time></trkpt><trkpt lat="41.555666017395616" lon="21.423210572039995"><ele>688.2</ele><time>2026-05-04T11:39:56.999Z</time></trkpt><trkpt lat="41.555714301261524" lon="21.423083685894944"><ele>687.8000000000001</ele><time>2026-05-04T11:39:57.999Z</time></trkpt><trkpt lat="41.55577782369626" lon="21.422997087999725"><ele>687.4000000000001</ele><time>2026-05-04T11:39:58.999Z</time></trkpt><trkpt lat="41.55583929093736" lon="21.422929070102974"><ele>687.0</ele><time>2026-05-04T11:39:59.999Z</time></trkpt><trkpt lat="41.555911687112086" lon="21.42285199856766"><ele>686.8</ele><time>2026-05-04T11:40:00.999Z</time></trkpt><trkpt lat="41.55599249947938" lon="21.422806923858328"><ele>686.6</ele><time>2026-05-04T11:40:01.999Z</time></trkpt><trkpt lat="41.55607880507292" lon="21.422758349793604"><ele>686.4</ele><time>2026-05-04T11:40:02.999Z</time></trkpt><trkpt lat="41.556172488891995" lon="21.42271477115656"><ele>686.1999999999999</ele><time>2026-05-04T11:40:03.999Z</time></trkpt><trkpt lat="41.55627126313385" lon="21.422668824642834"><ele>686.0</ele><time>2026-05-04T11:40:04.999Z</time></trkpt><trkpt lat="41.55637052627301" lon="21.42262267974504"><ele>687.0</ele><time>2026-05-04T11:40:05.999Z</time></trkpt><trkpt lat="41.55647300988225" lon="21.422575171028345"><ele>688.0</ele><time>2026-05-04T11:40:07Z</time></trkpt><trkpt lat="41.55657843168417" lon="21.422526300167878"><ele>689.0</ele><time>2026-05-04T11:40:08Z</time></trkpt><trkpt lat="41.556685964843" lon="21.422476522782905"><ele>690.0</ele><time>2026-05-04T11:40:09Z</time></trkpt><trkpt lat="41.55679536812624" lon="21.422426436816792"><ele>691.0</ele><time>2026-05-04T11:40:10Z</time></trkpt><trkpt lat="41.55690370771832" lon="21.42234504507977"><ele>691.0</ele><time>2026-05-04T11:40:11Z</time></trkpt><trkpt lat="41.55700629369035" lon="21.422258490527714"><ele>691.0</ele><time>2026-05-04T11:40:12Z</time></trkpt><trkpt lat="41.55709882162926" lon="21.422172634831988"><ele>691.0</ele><time>2026-05-04T11:40:13Z</time></trkpt><trkpt lat="41.55718210228031" lon="21.422086977371553"><ele>691.0</ele><time>2026-05-04T11:40:14Z</time></trkpt><trkpt lat="41.557250210949725" lon="21.42200441164863"><ele>691.0</ele><time>2026-05-04T11:40:15Z</time></trkpt><trkpt lat="41.55731490848937" lon="21.42192727103274"><ele>690.0</ele><time>2026-05-04T11:40:16Z</time></trkpt><trkpt lat="41.5574527589359" lon="21.42177120319219"><ele>689.0</ele><time>2026-05-04T11:40:18Z</time></trkpt><trkpt lat="41.55753755140632" lon="21.421675205100772"><ele>688.0</ele><time>2026-05-04T11:40:19Z</time></trkpt><trkpt lat="41.55762776097466" lon="21.42157373331242"><ele>687.0</ele><time>2026-05-04T11:40:20Z</time></trkpt><trkpt lat="41.5577300147977" lon="21.421459500486957"><ele>687.0</ele><time>2026-05-04T11:40:21Z</time></trkpt><trkpt lat="41.55783218708982" lon="21.42134370532447"><ele>687.0</ele><time>2026-05-04T11:40:22Z</time></trkpt><trkpt lat="41.55792888679604" lon="21.421232230236214"><ele>687.0</ele><time>2026-05-04T11:40:23Z</time></trkpt><trkpt lat="41.55802358284467" lon="21.421122921251744"><ele>687.0</ele><time>2026-05-04T11:40:24Z</time></trkpt><trkpt lat="41.55812369406187" lon="21.421037662031917"><ele>688.0</ele><time>2026-05-04T11:40:25Z</time></trkpt><trkpt lat="41.55822241779309" lon="21.420927070011796"><ele>689.0</ele><time>2026-05-04T11:40:26Z</time></trkpt><trkpt lat="41.558303092538665" lon="21.42082405484507"><ele>690.0</ele><time>2026-05-04T11:40:27Z</time></trkpt><trkpt lat="41.558373146331554" lon="21.420700360131317"><ele>691.0</ele><time>2026-05-04T11:40:28Z</time></trkpt><trkpt lat="41.5584393454328" lon="21.420583331423853"><ele>690.5999999999999</ele><time>2026-05-04T11:40:29Z</time></trkpt><trkpt lat="41.558491155922844" lon="21.420449206463463"><ele>690.2</ele><time>2026-05-04T11:40:30Z</time></trkpt><trkpt lat="41.55854601207441" lon="21.420326559769443"><ele>689.8</ele><time>2026-05-04T11:40:31Z</time></trkpt><trkpt lat="41.558610212763725" lon="21.420202309046054"><ele>689.4000000000001</ele><time>2026-05-04T11:40:32Z</time></trkpt><trkpt lat="41.5586737110583" lon="21.420078474663896"><ele>689.0</ele><time>2026-05-04T11:40:33Z</time></trkpt><trkpt lat="41.55873168627662" lon="21.41995840235989"><ele>690.0</ele><time>2026-05-04T11:40:34Z</time></trkpt><trkpt lat="41.558789413490686" lon="21.41983764517308"><ele>691.0</ele><time>2026-05-04T11:40:35Z</time></trkpt><trkpt lat="41.55884126440509" lon="21.41969948600632"><ele>692.0</ele><time>2026-05-04T11:40:36Z</time></trkpt><trkpt lat="41.55887775212757" lon="21.419554420436075"><ele>693.0</ele><time>2026-05-04T11:40:37Z</time></trkpt><trkpt lat="41.55893994676639" lon="21.419422368086995"><ele>693.25</ele><time>2026-05-04T11:40:38Z</time></trkpt><trkpt lat="41.55896741629451" lon="21.41926886383429"><ele>693.5</ele><time>2026-05-04T11:40:39Z</time></trkpt><trkpt lat="41.55900815560782" lon="21.419116017073037"><ele>693.75</ele><time>2026-05-04T11:40:40Z</time></trkpt><trkpt lat="41.55904399498915" lon="21.418968372919622"><ele>694.0</ele><time>2026-05-04T11:40:41Z</time></trkpt><trkpt lat="41.559106822708685" lon="21.418836205967803"><ele>694.2</ele><time>2026-05-04T11:40:42Z</time></trkpt><trkpt lat="41.55915424534382" lon="21.418703106640464"><ele>694.4000000000001</ele><time>2026-05-04T11:40:43Z</time></trkpt><trkpt lat="41.559207284145536" lon="21.418574105871"><ele>694.6</ele><time>2026-05-04T11:40:44Z</time></trkpt><trkpt lat="41.55925894064798" lon="21.418446108528016"><ele>694.8</ele><time>2026-05-04T11:40:45Z</time></trkpt><trkpt lat="41.559311799796006" lon="21.41831513117083"><ele>695.0</ele><time>2026-05-04T11:40:46Z</time></trkpt><trkpt lat="41.55936504690092" lon="21.418179549568706"><ele>695.0</ele><time>2026-05-04T11:40:47Z</time></trkpt><trkpt lat="41.55941842007153" lon="21.41804313729905"><ele>695.0</ele><time>2026-05-04T11:40:48Z</time></trkpt><trkpt lat="41.55946560590188" lon="21.417895742918137"><ele>695.0</ele><time>2026-05-04T11:40:49Z</time></trkpt><trkpt lat="41.55950480180404" lon="21.417746204816268"><ele>695.0</ele><time>2026-05-04T11:40:50Z</time></trkpt><trkpt lat="41.55954364973078" lon="21.417597994318204"><ele>696.4</ele><time>2026-05-04T11:40:51Z</time></trkpt><trkpt lat="41.559566891190165" lon="21.417445524184014"><ele>697.8</ele><time>2026-05-04T11:40:52Z</time></trkpt><trkpt lat="41.55961121930369" lon="21.417309288684827"><ele>699.2</ele><time>2026-05-04T11:40:53Z</time></trkpt><trkpt lat="41.55968716492391" lon="21.417202442331124"><ele>700.6</ele><time>2026-05-04T11:40:54Z</time></trkpt><trkpt lat="41.559751108521915" lon="21.41708829528273"><ele>702.0</ele><time>2026-05-04T11:40:55Z</time></trkpt><trkpt lat="41.55981624425305" lon="21.417024095731772"><ele>702.1666666666666</ele><time>2026-05-04T11:40:56Z</time></trkpt><trkpt lat="41.559872461059925" lon="21.416957088180055"><ele>702.3333333333334</ele><time>2026-05-04T11:40:57Z</time></trkpt><trkpt lat="41.559938502662355" lon="21.41684992925375"><ele>702.5</ele><time>2026-05-04T11:40:59Z</time></trkpt><trkpt lat="41.56005252271926" lon="21.41688397245621"><ele>702.6666666666667</ele><time>2026-05-04T11:41:01Z</time></trkpt><trkpt lat="41.56011364606361" lon="21.416861440452312"><ele>702.8333333333334</ele><time>2026-05-04T11:41:02Z</time></trkpt><trkpt lat="41.56017872475602" lon="21.41686928464949"><ele>703.0</ele><time>2026-05-04T11:41:03Z</time></trkpt><trkpt lat="41.560244886403204" lon="21.41687450062004"><ele>703.0</ele><time>2026-05-04T11:41:04Z</time></trkpt><trkpt lat="41.56031368603134" lon="21.416878998450024"><ele>703.0</ele><time>2026-05-04T11:41:05Z</time></trkpt><trkpt lat="41.56038661926344" lon="21.416887148811163"><ele>703.0</ele><time>2026-05-04T11:41:06Z</time></trkpt><trkpt lat="41.56046028084602" lon="21.416904824807208"><ele>703.0</ele><time>2026-05-04T11:41:07Z</time></trkpt><trkpt lat="41.56053508560626" lon="21.416935905780512"><ele>703.0</ele><time>2026-05-04T11:41:08Z</time></trkpt><trkpt lat="41.560606566377935" lon="21.416982428192043"><ele>703.0</ele><time>2026-05-04T11:41:09Z</time></trkpt><trkpt lat="41.560672745426345" lon="21.417047784327828"><ele>704.3333333333334</ele><time>2026-05-04T11:41:10Z</time></trkpt><trkpt lat="41.56073497226487" lon="21.417123439651732"><ele>705.6666666666667</ele><time>2026-05-04T11:41:11Z</time></trkpt><trkpt lat="41.56079333244752" lon="21.417209953144"><ele>707.0</ele><time>2026-05-04T11:41:12Z</time></trkpt><trkpt lat="41.56084750049321" lon="21.41730027778839"><ele>708.3333333333334</ele><time>2026-05-04T11:41:13Z</time></trkpt><trkpt lat="41.56090320853086" lon="21.417399388020254"><ele>709.6666666666666</ele><time>2026-05-04T11:41:14Z</time></trkpt><trkpt lat="41.56096033480078" lon="21.417502804029183"><ele>711.0</ele><time>2026-05-04T11:41:15Z</time></trkpt><trkpt lat="41.56102142994119" lon="21.41760837714741"><ele>711.0</ele><time>2026-05-04T11:41:16Z</time></trkpt><trkpt lat="41.5610823853537" lon="21.417716749810406"><ele>711.0</ele><time>2026-05-04T11:41:17Z</time></trkpt><trkpt lat="41.561147346336256" lon="21.417826642474186"><ele>711.0</ele><time>2026-05-04T11:41:18Z</time></trkpt><trkpt lat="41.561215593965855" lon="21.417938701613284"><ele>711.0</ele><time>2026-05-04T11:41:19Z</time></trkpt><trkpt lat="41.56128656257144" lon="21.41805428568148"><ele>711.0</ele><time>2026-05-04T11:41:20Z</time></trkpt><trkpt lat="41.56135967312318" lon="21.4181745518503"><ele>712.75</ele><time>2026-05-04T11:41:21Z</time></trkpt><trkpt lat="41.561434975188554" lon="21.418297974293264"><ele>714.5</ele><time>2026-05-04T11:41:22Z</time></trkpt><trkpt lat="41.561510656016665" lon="21.41842540356284"><ele>716.25</ele><time>2026-05-04T11:41:22.999Z</time></trkpt><trkpt lat="41.561581751209516" lon="21.418550701005003"><ele>718.0</ele><time>2026-05-04T11:41:23.999Z</time></trkpt><trkpt lat="41.56164901305436" lon="21.41866492070936"><ele>718.0</ele><time>2026-05-04T11:41:24.999Z</time></trkpt><trkpt lat="41.5617071310618" lon="21.41876896210105"><ele>718.0</ele><time>2026-05-04T11:41:25.999Z</time></trkpt><trkpt lat="41.56176138291088" lon="21.418863883960803"><ele>718.0</ele><time>2026-05-04T11:41:26.999Z</time></trkpt><trkpt lat="41.5618111634755" lon="21.41895103477486"><ele>718.0</ele><time>2026-05-04T11:41:27.999Z</time></trkpt><trkpt lat="41.56185456382604" lon="21.41902741566148"><ele>718.0</ele><time>2026-05-04T11:41:28.999Z</time></trkpt><trkpt lat="41.561921043667546" lon="21.419155309562413"><ele>717.8333333333334</ele><time>2026-05-04T11:41:30.999Z</time></trkpt><trkpt lat="41.56199660258278" lon="21.41926274374123"><ele>717.6666666666667</ele><time>2026-05-04T11:41:32.999Z</time></trkpt><trkpt lat="41.562042468815775" lon="21.41933131494581"><ele>717.5</ele><time>2026-05-04T11:41:33.999Z</time></trkpt><trkpt lat="41.56209304585135" lon="21.419407815028425"><ele>717.3333333333334</ele><time>2026-05-04T11:41:34.999Z</time></trkpt><trkpt lat="41.56214879762393" lon="21.419493314219373"><ele>717.1666666666666</ele><time>2026-05-04T11:41:35.999Z</time></trkpt><trkpt lat="41.56221496271997" lon="21.419599022556493"><ele>717.0</ele><time>2026-05-04T11:41:36.999Z</time></trkpt><trkpt lat="41.56228504859323" lon="21.419724419067883"><ele>717.0</ele><time>2026-05-04T11:41:37.999Z</time></trkpt><trkpt lat="41.56234783672292" lon="21.419860175654534"><ele>717.0</ele><time>2026-05-04T11:41:38.999Z</time></trkpt><trkpt lat="41.562434799460064" lon="21.42000263516726"><ele>717.0</ele><time>2026-05-04T11:41:39.999Z</time></trkpt><trkpt lat="41.562519162665154" lon="21.42016741267154"><ele>717.0</ele><time>2026-05-04T11:41:40.999Z</time></trkpt><trkpt lat="41.56261020679376" lon="21.420334502346474"><ele>716.0</ele><time>2026-05-04T11:41:41.999Z</time></trkpt><trkpt lat="41.56269935595852" lon="21.420486116823206"><ele>715.0</ele><time>2026-05-04T11:41:42.999Z</time></trkpt><trkpt lat="41.56277724426207" lon="21.42060603288398"><ele>714.0</ele><time>2026-05-04T11:41:43.999Z</time></trkpt><trkpt lat="41.56285775866889" lon="21.420715616664516"><ele>713.0</ele><time>2026-05-04T11:41:44.999Z</time></trkpt><trkpt lat="41.56294629479814" lon="21.42081872644267"><ele>715.5</ele><time>2026-05-04T11:41:45.999Z</time></trkpt><trkpt lat="41.56304552730566" lon="21.420915660428424"><ele>718.0</ele><time>2026-05-04T11:41:46.999Z</time></trkpt><trkpt lat="41.56313515109823" lon="21.421033335879606"><ele>720.5</ele><time>2026-05-04T11:41:47.999Z</time></trkpt><trkpt lat="41.56327427277974" lon="21.421066849020825"><ele>723.0</ele><time>2026-05-04T11:41:48.999Z</time></trkpt><trkpt lat="41.5634063315804" lon="21.421121875222866"><ele>723.0</ele><time>2026-05-04T11:41:49.999Z</time></trkpt><trkpt lat="41.56354676750147" lon="21.421170674230613"><ele>723.0</ele><time>2026-05-04T11:41:50.999Z</time></trkpt><trkpt lat="41.56369476591106" lon="21.421217816037846"><ele>723.0</ele><time>2026-05-04T11:41:51.999Z</time></trkpt><trkpt lat="41.563851127757324" lon="21.42126614386204"><ele>725.0</ele><time>2026-05-04T11:41:52.999Z</time></trkpt><trkpt lat="41.56400928632035" lon="21.42130842711851"><ele>727.0</ele><time>2026-05-04T11:41:53.999Z</time></trkpt><trkpt lat="41.564156229253726" lon="21.421385383600782"><ele>729.0</ele><time>2026-05-04T11:41:54.999Z</time></trkpt><trkpt lat="41.564320647492146" lon="21.421401127453734"><ele>729.0</ele><time>2026-05-04T11:41:55.999Z</time></trkpt><trkpt lat="41.564478336067374" lon="21.421407504427393"><ele>729.0</ele><time>2026-05-04T11:41:56.999Z</time></trkpt><trkpt lat="41.564639082431725" lon="21.421392764479364"><ele>729.0</ele><time>2026-05-04T11:41:57.999Z</time></trkpt><trkpt lat="41.56479769505463" lon="21.42139857343337"><ele>730.75</ele><time>2026-05-04T11:41:58.999Z</time></trkpt><trkpt lat="41.5649573473209" lon="21.421405526780827"><ele>732.5</ele><time>2026-05-04T11:41:59.999Z</time></trkpt><trkpt lat="41.56509123017433" lon="21.42144377687948"><ele>734.25</ele><time>2026-05-04T11:42:00.999Z</time></trkpt><trkpt lat="41.565209499448" lon="21.421479276614047"><ele>736.0</ele><time>2026-05-04T11:42:01.999Z</time></trkpt><trkpt lat="41.5652977259332" lon="21.42150580135737"><ele>737.5</ele><time>2026-05-04T11:42:02.999Z</time></trkpt><trkpt lat="41.56538174719866" lon="21.421552614034553"><ele>739.0</ele><time>2026-05-04T11:42:03.999Z</time></trkpt><trkpt lat="41.56546356185324" lon="21.421592176651316"><ele>740.5</ele><time>2026-05-04T11:42:04.999Z</time></trkpt><trkpt lat="41.565530927900724" lon="21.42164798083338"><ele>742.0</ele><time>2026-05-04T11:42:05.999Z</time></trkpt><trkpt lat="41.56560324261104" lon="21.42169435463217"><ele>743.5</ele><time>2026-05-04T11:42:06.999Z</time></trkpt><trkpt lat="41.565636821956716" lon="21.42179062623225"><ele>745.0</ele><time>2026-05-04T11:42:07.999Z</time></trkpt><trkpt lat="41.56568595776592" lon="21.421875257609837"><ele>745.0</ele><time>2026-05-04T11:42:08.999Z</time></trkpt><trkpt lat="41.56571360519504" lon="21.421979039545054"><ele>745.0</ele><time>2026-05-04T11:42:09.999Z</time></trkpt><trkpt lat="41.56573979036469" lon="21.422077717633837"><ele>745.0</ele><time>2026-05-04T11:42:10.999Z</time></trkpt><trkpt lat="41.56576353545891" lon="21.422175455373427"><ele>745.0</ele><time>2026-05-04T11:42:12Z</time></trkpt><trkpt lat="41.56578740376072" lon="21.4222662807474"><ele>745.0</ele><time>2026-05-04T11:42:13Z</time></trkpt><trkpt lat="41.565790818083414" lon="21.422359181617818"><ele>745.0</ele><time>2026-05-04T11:42:14Z</time></trkpt><trkpt lat="41.565809300773644" lon="21.422443643230878"><ele>745.0</ele><time>2026-05-04T11:42:15Z</time></trkpt><trkpt lat="41.565841640849584" lon="21.422522402896817"><ele>745.2</ele><time>2026-05-04T11:42:16Z</time></trkpt><trkpt lat="41.56585485677163" lon="21.422605522361255"><ele>745.4</ele><time>2026-05-04T11:42:17Z</time></trkpt><trkpt lat="41.56586971536089" lon="21.422757542724547"><ele>745.5999999999999</ele><time>2026-05-04T11:42:19Z</time></trkpt><trkpt lat="41.56588668999644" lon="21.422912667430655"><ele>745.8</ele><time>2026-05-04T11:42:21Z</time></trkpt><trkpt lat="41.56590116371233" lon="21.42304732560708"><ele>746.0</ele><time>2026-05-04T11:42:23Z</time></trkpt><trkpt lat="41.56592404197498" lon="21.423128286114164"><ele>746.5</ele><time>2026-05-04T11:42:25Z</time></trkpt><trkpt lat="41.565954114274525" lon="21.423225474494398"><ele>747.0</ele><time>2026-05-04T11:42:28Z</time></trkpt><trkpt lat="41.5660786784534" lon="21.423195095635318"><ele>747.5</ele><time>2026-05-04T11:42:32Z</time></trkpt><trkpt lat="41.566152977230274" lon="21.423140788056365"><ele>748.0</ele><time>2026-05-04T11:42:35Z</time></trkpt><trkpt lat="41.566214301026754" lon="21.42309829614709"><ele>748.5</ele><time>2026-05-04T11:42:37Z</time></trkpt><trkpt lat="41.5662937897144" lon="21.42305350119956"><ele>749.0</ele><time>2026-05-04T11:42:40Z</time></trkpt><trkpt lat="41.56637110586161" lon="21.423041868828076"><ele>750.8571428571429</ele><time>2026-05-04T11:42:49Z</time></trkpt><trkpt lat="41.56644411648277" lon="21.42302781549644"><ele>752.7142857142858</ele><time>2026-05-04T11:42:53Z</time></trkpt><trkpt lat="41.56651213109974" lon="21.423023618447722"><ele>754.5714285714286</ele><time>2026-05-04T11:42:56Z</time></trkpt><trkpt lat="41.5665838828826" lon="21.42304177815448"><ele>756.4285714285714</ele><time>2026-05-04T11:43:00Z</time></trkpt><trkpt lat="41.56666652083598" lon="21.42303684410358"><ele>758.2857142857143</ele><time>2026-05-04T11:43:03Z</time></trkpt><trkpt lat="41.56674106219566" lon="21.42303876283916"><ele>760.1428571428571</ele><time>2026-05-04T11:43:06Z</time></trkpt><trkpt lat="41.566805453494844" lon="21.42304718390264"><ele>762.0</ele><time>2026-05-04T11:43:09Z</time></trkpt><trkpt lat="41.56688277007659" lon="21.423065950650745"><ele>762.0</ele><time>2026-05-04T11:43:12Z</time></trkpt><trkpt lat="41.5669485354562" lon="21.42307136527788"><ele>762.0</ele><time>2026-05-04T11:43:15Z</time></trkpt><trkpt lat="41.56701686501065" lon="21.4230198322165"><ele>762.0</ele><time>2026-05-04T11:43:18Z</time></trkpt><trkpt lat="41.567087387259946" lon="21.422987878713833"><ele>762.0</ele><time>2026-05-04T11:43:20Z</time></trkpt><trkpt lat="41.56716636889179" lon="21.422995983747747"><ele>762.0</ele><time>2026-05-04T11:43:23Z</time></trkpt><trkpt lat="41.56723220914436" lon="21.422973513493037"><ele>762.0</ele><time>2026-05-04T11:43:26Z</time></trkpt><trkpt lat="41.567306597619236" lon="21.422980390667238"><ele>762.0</ele><time>2026-05-04T11:43:29Z</time></trkpt><trkpt lat="41.56738329646696" lon="21.423024356012537"><ele>765.0</ele><time>2026-05-04T11:43:32Z</time></trkpt><trkpt lat="41.567440666238646" lon="21.42306815916744"><ele>768.0</ele><time>2026-05-04T11:43:35Z</time></trkpt><trkpt lat="41.567517161842225" lon="21.423102366800986"><ele>771.0</ele><time>2026-05-04T11:43:38Z</time></trkpt><trkpt lat="41.567595406468946" lon="21.423161788483725"><ele>774.0</ele><time>2026-05-04T11:43:41Z</time></trkpt><trkpt lat="41.56765279580883" lon="21.423197247487764"><ele>777.0</ele><time>2026-05-04T11:43:42Z</time></trkpt><trkpt lat="41.567732935290806" lon="21.42322845256533"><ele>780.0</ele><time>2026-05-04T11:43:44Z</time></trkpt><trkpt lat="41.56780670583129" lon="21.423225853345926"><ele>782.6666666666666</ele><time>2026-05-04T11:43:47Z</time></trkpt><trkpt lat="41.56788982477032" lon="21.42319521773002"><ele>785.3333333333333</ele><time>2026-05-04T11:43:49.999Z</time></trkpt><trkpt lat="41.56797264208759" lon="21.423131346233564"><ele>788.0</ele><time>2026-05-04T11:43:51.999Z</time></trkpt><trkpt lat="41.56804655456672" lon="21.42308883206905"><ele>790.6666666666666</ele><time>2026-05-04T11:43:54.999Z</time></trkpt><trkpt lat="41.5681151845481" lon="21.423089652437124"><ele>793.3333333333333</ele><time>2026-05-04T11:43:56.999Z</time></trkpt><trkpt lat="41.56821527345324" lon="21.423067350949488"><ele>796.0</ele><time>2026-05-04T11:43:58.999Z</time></trkpt><trkpt lat="41.56827855993135" lon="21.42305805537922"><ele>795.9999999999999</ele><time>2026-05-04T11:44:00.999Z</time></trkpt><trkpt lat="41.56836584876676" lon="21.42305222000525"><ele>796.0</ele><time>2026-05-04T11:44:02.999Z</time></trkpt><trkpt lat="41.568451379207126" lon="21.423088478635524"><ele>796.0</ele><time>2026-05-04T11:44:04.999Z</time></trkpt><trkpt lat="41.56850294723477" lon="21.42315452688762"><ele>796.0</ele><time>2026-05-04T11:44:06.999Z</time></trkpt><trkpt lat="41.56856092943359" lon="21.423219587730276"><ele>795.9999999999999</ele><time>2026-05-04T11:44:10.999Z</time></trkpt><trkpt lat="41.56863776966213" lon="21.42326854615773"><ele>796.0</ele><time>2026-05-04T11:44:13.999Z</time></trkpt><trkpt lat="41.56870085169997" lon="21.4232971903541"><ele>798.1666666666666</ele><time>2026-05-04T11:44:15.999Z</time></trkpt><trkpt lat="41.568768055719225" lon="21.423307980098052"><ele>800.3333333333333</ele><time>2026-05-04T11:44:18.001Z</time></trkpt><trkpt lat="41.56883160806671" lon="21.42334875222444"><ele>802.5</ele><time>2026-05-04T11:44:20.001Z</time></trkpt><trkpt lat="41.568888387488165" lon="21.423405891212592"><ele>804.6666666666667</ele><time>2026-05-04T11:44:22.001Z</time></trkpt><trkpt lat="41.568967437079074" lon="21.423452996969676"><ele>806.8333333333334</ele><time>2026-05-04T11:44:24.001Z</time></trkpt><trkpt lat="41.56906187650853" lon="21.423478201725136"><ele>809.0</ele><time>2026-05-04T11:44:26.001Z</time></trkpt><trkpt lat="41.56914098196706" lon="21.42352969738451"><ele>809.0000000000001</ele><time>2026-05-04T11:44:28.001Z</time></trkpt><trkpt lat="41.56920184843892" lon="21.423567576559492"><ele>809.0</ele><time>2026-05-04T11:44:30.001Z</time></trkpt><trkpt lat="41.56928419216844" lon="21.42357047355056"><ele>809.0</ele><time>2026-05-04T11:44:33.001Z</time></trkpt><trkpt lat="41.569349810727786" lon="21.423597962076574"><ele>809.0</ele><time>2026-05-04T11:44:35.001Z</time></trkpt><trkpt lat="41.569403683354246" lon="21.423659694364396"><ele>809.0000000000001</ele><time>2026-05-04T11:44:38Z</time></trkpt><trkpt lat="41.56945646276399" lon="21.42375617586219"><ele>809.0</ele><time>2026-05-04T11:44:41Z</time></trkpt><trkpt lat="41.56952088812102" lon="21.423835499518095"><ele>811.8571428571429</ele><time>2026-05-04T11:44:44Z</time></trkpt><trkpt lat="41.56960441151431" lon="21.42387655287662"><ele>814.7142857142858</ele><time>2026-05-04T11:44:47Z</time></trkpt><trkpt lat="41.56965451847014" lon="21.4239304755746"><ele>817.5714285714286</ele><time>2026-05-04T11:44:50.999Z</time></trkpt><trkpt lat="41.569716911681866" lon="21.42400530104772"><ele>820.4285714285714</ele><time>2026-05-04T11:44:55.999Z</time></trkpt><trkpt lat="41.569774340844596" lon="21.42404508196557"><ele>823.2857142857142</ele><time>2026-05-04T11:44:57.999Z</time></trkpt><trkpt lat="41.56984452691528" lon="21.424063968706765"><ele>826.1428571428571</ele><time>2026-05-04T11:45:00.999Z</time></trkpt><trkpt lat="41.56991382196807" lon="21.424052009338915"><ele>829.0</ele><time>2026-05-04T11:45:07.999Z</time></trkpt><trkpt lat="41.56998271564582" lon="21.424052373036044"><ele>829.0</ele><time>2026-05-04T11:45:11.999Z</time></trkpt><trkpt lat="41.570045731752806" lon="21.42407372800537"><ele>829.0</ele><time>2026-05-04T11:45:15.999Z</time></trkpt><trkpt lat="41.570109205788235" lon="21.424089546600754"><ele>829.0</ele><time>2026-05-04T11:45:18.999Z</time></trkpt><trkpt lat="41.570172666490556" lon="21.42411244275257"><ele>829.0</ele><time>2026-05-04T11:45:22.999Z</time></trkpt><trkpt lat="41.57024050233405" lon="21.42411439794127"><ele>829.0</ele><time>2026-05-04T11:45:25.999Z</time></trkpt><trkpt lat="41.57031546628125" lon="21.424110908569688"><ele>829.0</ele><time>2026-05-04T11:45:28.999Z</time></trkpt><trkpt lat="41.57038899964531" lon="21.424111150408322"><ele>829.0</ele><time>2026-05-04T11:45:31.999Z</time></trkpt><trkpt lat="41.570459248355384" lon="21.424091080224578"><ele>831.9999999999999</ele><time>2026-05-04T11:45:33.999Z</time></trkpt><trkpt lat="41.57052532044752" lon="21.424059966867144"><ele>835.0</ele><time>2026-05-04T11:45:36.999Z</time></trkpt><trkpt lat="41.57061308370621" lon="21.42404541544728"><ele>838.0</ele><time>2026-05-04T11:45:39.999Z</time></trkpt><trkpt lat="41.570701776145675" lon="21.42405160199064"><ele>841.0</ele><time>2026-05-04T11:45:42.999Z</time></trkpt><trkpt lat="41.570766043226506" lon="21.424043241418207"><ele>843.9999999999999</ele><time>2026-05-04T11:45:44.999Z</time></trkpt><trkpt lat="41.57085027751841" lon="21.424020341693257"><ele>847.0</ele><time>2026-05-04T11:45:47.999Z</time></trkpt><trkpt lat="41.57091593466828" lon="21.424000695377988"><ele>847.0</ele><time>2026-05-04T11:45:54.999Z</time></trkpt><trkpt lat="41.57097508210867" lon="21.42396809545701"><ele>847.0</ele><time>2026-05-04T11:45:59.999Z</time></trkpt><trkpt lat="41.57102231868248" lon="21.42389493546575"><ele>847.0</ele><time>2026-05-04T11:46:03.999Z</time></trkpt><trkpt lat="41.571089003800154" lon="21.423845577583226"><ele>847.0</ele><time>2026-05-04T11:46:06.999Z</time></trkpt><trkpt lat="41.57115318489394" lon="21.42386732463635"><ele>847.0</ele><time>2026-05-04T11:46:09.999Z</time></trkpt><trkpt lat="41.571220035325716" lon="21.42390443783838"><ele>847.0</ele><time>2026-05-04T11:46:15.998Z</time></trkpt><trkpt lat="41.57129902154741" lon="21.423911229974234"><ele>847.0</ele><time>2026-05-04T11:46:19.998Z</time></trkpt><trkpt lat="41.571369225544224" lon="21.42390331335801"><ele>849.2857142857143</ele><time>2026-05-04T11:46:22.998Z</time></trkpt><trkpt lat="41.57143269711676" lon="21.423895922601982"><ele>851.5714285714286</ele><time>2026-05-04T11:46:28Z</time></trkpt><trkpt lat="41.57150268018987" lon="21.42390884092012"><ele>853.8571428571429</ele><time>2026-05-04T11:46:33Z</time></trkpt><trkpt lat="41.57156734079411" lon="21.423892906376263"><ele>856.1428571428571</ele><time>2026-05-04T11:46:38Z</time></trkpt><trkpt lat="41.571640426724194" lon="21.423892681131505"><ele>858.4285714285714</ele><time>2026-05-04T11:46:43Z</time></trkpt><trkpt lat="41.57170116298913" lon="21.423843851799294"><ele>860.7142857142858</ele><time>2026-05-04T11:46:47Z</time></trkpt><trkpt lat="41.57175499805073" lon="21.42377934049331"><ele>863.0</ele><time>2026-05-04T11:46:51Z</time></trkpt><trkpt lat="41.57178867998121" lon="21.423706914679105"><ele>863.7142857142858</ele><time>2026-05-04T11:46:54Z</time></trkpt><trkpt lat="41.571826241012225" lon="21.423623902709473"><ele>864.4285714285714</ele><time>2026-05-04T11:46:57Z</time></trkpt><trkpt lat="41.57188738846101" lon="21.423598418473652"><ele>865.1428571428571</ele><time>2026-05-04T11:47:00Z</time></trkpt><trkpt lat="41.571954138849385" lon="21.423548422363815"><ele>865.8571428571429</ele><time>2026-05-04T11:47:05Z</time></trkpt><trkpt lat="41.57200019201315" lon="21.423480028002796"><ele>866.5714285714286</ele><time>2026-05-04T11:47:08.999Z</time></trkpt><trkpt lat="41.572042306408356" lon="21.423407490604614"><ele>867.2857142857143</ele><time>2026-05-04T11:47:12.999Z</time></trkpt><trkpt lat="41.572074220320225" lon="21.423311298083274"><ele>868.0</ele><time>2026-05-04T11:47:16.999Z</time></trkpt><trkpt lat="41.572120434744974" lon="21.423229649867658"><ele>870.2857142857143</ele><time>2026-05-04T11:47:20.999Z</time></trkpt><trkpt lat="41.57218156355394" lon="21.42317298882457"><ele>872.5714285714286</ele><time>2026-05-04T11:47:23.999Z</time></trkpt><trkpt lat="41.57225282449422" lon="21.423110629287226"><ele>874.8571428571429</ele><time>2026-05-04T11:47:27.999Z</time></trkpt><trkpt lat="41.57229695497385" lon="21.423038032642356"><ele>877.1428571428571</ele><time>2026-05-04T11:47:32.999Z</time></trkpt><trkpt lat="41.57235746164699" lon="21.42298981815135"><ele>879.4285714285714</ele><time>2026-05-04T11:47:37.999Z</time></trkpt><trkpt lat="41.57242055590185" lon="21.42296103113758"><ele>881.7142857142858</ele><time>2026-05-04T11:47:41.999Z</time></trkpt><trkpt lat="41.57248146546943" lon="21.422923878762493"><ele>884.0</ele><time>2026-05-04T11:47:44.999Z</time></trkpt><trkpt lat="41.5725631928018" lon="21.42292817813667"><ele>884.0000000000001</ele><time>2026-05-04T11:47:48.999Z</time></trkpt><trkpt lat="41.57262535470723" lon="21.422910621484004"><ele>884.0</ele><time>2026-05-04T11:47:51.999Z</time></trkpt><trkpt lat="41.572684463012386" lon="21.422863969367672"><ele>884.0</ele><time>2026-05-04T11:47:54.999Z</time></trkpt><trkpt lat="41.57274578031026" lon="21.422831207597117"><ele>884.0</ele><time>2026-05-04T11:47:57.999Z</time></trkpt><trkpt lat="41.57281807919084" lon="21.422776693828972"><ele>884.0</ele><time>2026-05-04T11:48:01.999Z</time></trkpt><trkpt lat="41.572896670093364" lon="21.422764930190844"><ele>884.0000000000001</ele><time>2026-05-04T11:48:06.999Z</time></trkpt><trkpt lat="41.57296522090792" lon="21.422759515977173"><ele>884.0</ele><time>2026-05-04T11:48:10.999Z</time></trkpt><trkpt lat="41.573025162322764" lon="21.422713808078594"><ele>887.0</ele><time>2026-05-04T11:48:15.999Z</time></trkpt><trkpt lat="41.57310973516085" lon="21.422664267549052"><ele>890.0</ele><time>2026-05-04T11:48:18.999Z</time></trkpt><trkpt lat="41.57318017987551" lon="21.422629127787065"><ele>893.0</ele><time>2026-05-04T11:48:21.999Z</time></trkpt><trkpt lat="41.57325049331105" lon="21.422628567796483"><ele>896.0</ele><time>2026-05-04T11:48:25.999Z</time></trkpt><trkpt lat="41.57329052479324" lon="21.422701549454292"><ele>898.9999999999999</ele><time>2026-05-04T11:48:31Z</time></trkpt><trkpt lat="41.57332695323135" lon="21.42278239718107"><ele>902.0</ele><time>2026-05-04T11:48:35Z</time></trkpt><trkpt lat="41.57336731398351" lon="21.422852688375553"><ele>905.0</ele><time>2026-05-04T11:48:39Z</time></trkpt><trkpt lat="41.57342281533774" lon="21.42291076915588"><ele>905.0</ele><time>2026-05-04T11:48:43Z</time></trkpt><trkpt lat="41.573483320141435" lon="21.422961051465574"><ele>904.9999999999999</ele><time>2026-05-04T11:48:46Z</time></trkpt><trkpt lat="41.57354768134333" lon="21.42300172980826"><ele>905.0</ele><time>2026-05-04T11:48:49Z</time></trkpt><trkpt lat="41.5736166516571" lon="21.4230202558622"><ele>905.0</ele><time>2026-05-04T11:48:52Z</time></trkpt><trkpt lat="41.57367851806237" lon="21.42297606836087"><ele>904.9999999999999</ele><time>2026-05-04T11:48:55Z</time></trkpt><trkpt lat="41.573743390229204" lon="21.422963235343477"><ele>905.0</ele><time>2026-05-04T11:48:59Z</time></trkpt><trkpt lat="41.573806841996884" lon="21.422969788598294"><ele>905.0</ele><time>2026-05-04T11:49:04Z</time></trkpt><trkpt lat="41.57388094973176" lon="21.422957569937825"><ele>908.4285714285713</ele><time>2026-05-04T11:49:09Z</time></trkpt><trkpt lat="41.57384626099647" lon="21.422872124417825"><ele>911.8571428571428</ele><time>2026-05-04T11:49:13Z</time></trkpt><trkpt lat="41.573887623824085" lon="21.422797986187742"><ele>915.2857142857142</ele><time>2026-05-04T11:49:46.999Z</time></trkpt><trkpt lat="41.57395857392374" lon="21.422774675292338"><ele>918.7142857142858</ele><time>2026-05-04T11:49:56.999Z</time></trkpt><trkpt lat="41.574038177496845" lon="21.422799514441515"><ele>922.1428571428572</ele><time>2026-05-04T11:50:36Z</time></trkpt><trkpt lat="41.57410168919903" lon="21.422779080200446"><ele>925.5714285714287</ele><time>2026-05-04T11:50:46Z</time></trkpt><trkpt lat="41.57412731550049" lon="21.422699858295225"><ele>929.0</ele><time>2026-05-04T11:50:51Z</time></trkpt><trkpt lat="41.574144032428364" lon="21.422594364289036"><ele>929.0</ele><time>2026-05-04T11:50:58Z</time></trkpt><trkpt lat="41.574159970856044" lon="21.422511381889304"><ele>929.0000000000001</ele><time>2026-05-04T11:51:00Z</time></trkpt><trkpt lat="41.574134133397344" lon="21.42240286099962"><ele>929.0</ele><time>2026-05-04T11:51:02Z</time></trkpt><trkpt lat="41.57416793793632" lon="21.42233164966033"><ele>929.0</ele><time>2026-05-04T11:51:08Z</time></trkpt><trkpt lat="41.574244772732165" lon="21.42235377510815"><ele>929.0000000000001</ele><time>2026-05-04T11:51:15Z</time></trkpt><trkpt lat="41.57431297282813" lon="21.42235428472946"><ele>929.0</ele><time>2026-05-04T11:51:20Z</time></trkpt><trkpt lat="41.57436488811937" lon="21.422298454802615"><ele>929.0</ele><time>2026-05-04T11:51:22Z</time></trkpt><trkpt lat="41.57440663195246" lon="21.422221975350055"><ele>930.0</ele><time>2026-05-04T11:51:29Z</time></trkpt><trkpt lat="41.57442910043966" lon="21.422134119119306"><ele>931.0000000000001</ele><time>2026-05-04T11:51:38Z</time></trkpt><trkpt lat="41.57447115589796" lon="21.422063813335765"><ele>932.0</ele><time>2026-05-04T11:51:42.999Z</time></trkpt><trkpt lat="41.57452886388952" lon="21.421994953943216"><ele>933.0</ele><time>2026-05-04T11:51:48.999Z</time></trkpt><trkpt lat="41.5745895377267" lon="21.421958923869752"><ele>934.0000000000001</ele><time>2026-05-04T11:51:53.999Z</time></trkpt><trkpt lat="41.57466084222365" lon="21.421986454035878"><ele>935.0</ele><time>2026-05-04T11:51:59.999Z</time></trkpt><trkpt lat="41.57472000066838" lon="21.42191453650608"><ele>936.0</ele><time>2026-05-04T11:52:05.999Z</time></trkpt><trkpt lat="41.574771049750346" lon="21.42186049024218"><ele>940.0</ele><time>2026-05-04T11:52:10.999Z</time></trkpt><trkpt lat="41.574830141130896" lon="21.421803390605493"><ele>944.0000000000001</ele><time>2026-05-04T11:52:15.999Z</time></trkpt><trkpt lat="41.574908545150564" lon="21.42175527743015"><ele>948.0</ele><time>2026-05-04T11:53:01Z</time></trkpt><trkpt lat="41.57495837410762" lon="21.421695579910786"><ele>952.0</ele><time>2026-05-04T11:53:09Z</time></trkpt><trkpt lat="41.57497818877472" lon="21.42159845834543"><ele>956.0000000000001</ele><time>2026-05-04T11:53:16Z</time></trkpt><trkpt lat="41.57500791172309" lon="21.421508895094412"><ele>960.0</ele><time>2026-05-04T11:53:21Z</time></trkpt><trkpt lat="41.575041191828035" lon="21.42143456854615"><ele>964.0</ele><time>2026-05-04T11:53:25Z</time></trkpt><trkpt lat="41.57507424507274" lon="21.421350947699445"><ele>964.4285714285714</ele><time>2026-05-04T11:53:30Z</time></trkpt><trkpt lat="41.57512177726729" lon="21.421266692512113"><ele>964.8571428571429</ele><time>2026-05-04T11:53:34Z</time></trkpt><trkpt lat="41.575141791292936" lon="21.42117786754025"><ele>965.2857142857143</ele><time>2026-05-04T11:53:40Z</time></trkpt><trkpt lat="41.5751893047014" lon="21.4210946413625"><ele>965.7142857142858</ele><time>2026-05-04T11:53:45Z</time></trkpt><trkpt lat="41.57524413886035" lon="21.421003735055493"><ele>966.1428571428571</ele><time>2026-05-04T11:53:50Z</time></trkpt><trkpt lat="41.57530135808055" lon="21.420963379464485"><ele>966.5714285714287</ele><time>2026-05-04T11:53:56Z</time></trkpt><trkpt lat="41.57536707588662" lon="21.420981767732066"><ele>967.0</ele><time>2026-05-04T11:54:19.999Z</time></trkpt><trkpt lat="41.575421349244884" lon="21.42092380603342"><ele>970.8333333333333</ele><time>2026-05-04T11:54:32.999Z</time></trkpt><trkpt lat="41.57548939542995" lon="21.420941983246472"><ele>974.6666666666666</ele><time>2026-05-04T11:54:35.999Z</time></trkpt><trkpt lat="41.57553913854507" lon="21.42102822394997"><ele>978.5</ele><time>2026-05-04T11:54:38.999Z</time></trkpt><trkpt lat="41.57558835200863" lon="21.421081707086795"><ele>982.3333333333333</ele><time>2026-05-04T11:54:40.999Z</time></trkpt><trkpt lat="41.57565965905317" lon="21.421112526143858"><ele>986.1666666666666</ele><time>2026-05-04T11:54:43.999Z</time></trkpt><trkpt lat="41.575720945801706" lon="21.42108174157824"><ele>990.0</ele><time>2026-05-04T11:54:49Z</time></trkpt><trkpt lat="41.57562008345228" lon="21.421102586000334"><ele>990.0</ele><time>2026-05-04T11:55:04Z</time></trkpt><trkpt lat="41.57552721447018" lon="21.42103306016424"><ele>990.0</ele><time>2026-05-04T11:55:06Z</time></trkpt><trkpt lat="41.57546353232147" lon="21.420914511961765"><ele>990.0</ele><time>2026-05-04T11:55:08Z</time></trkpt><trkpt lat="41.575422431616175" lon="21.420793841034662"><ele>990.0</ele><time>2026-05-04T11:55:10Z</time></trkpt><trkpt lat="41.57544293282348" lon="21.420670973481347"><ele>990.0</ele><time>2026-05-04T11:55:12Z</time></trkpt><trkpt lat="41.575417930056936" lon="21.42056008801474"><ele>993.4</ele><time>2026-05-04T11:55:14Z</time></trkpt><trkpt lat="41.57539979642204" lon="21.4204794283785"><ele>996.8</ele><time>2026-05-04T11:55:15Z</time></trkpt><trkpt lat="41.57539392692045" lon="21.420370753298414"><ele>1000.2</ele><time>2026-05-04T11:55:17Z</time></trkpt><trkpt lat="41.57538648700734" lon="21.42024270349936"><ele>1003.6</ele><time>2026-05-04T11:55:18.999Z</time></trkpt><trkpt lat="41.57534284567803" lon="21.420107474734586"><ele>1007.0</ele><time>2026-05-04T11:55:20.999Z</time></trkpt><trkpt lat="41.57533548604166" lon="21.419965776297712"><ele>1007.0</ele><time>2026-05-04T11:55:22.999Z</time></trkpt><trkpt lat="41.57536590871122" lon="21.419887309822766"><ele>1007.0</ele><time>2026-05-04T11:55:23.999Z</time></trkpt><trkpt lat="41.575357561279404" lon="21.419742881684968"><ele>1007.0</ele><time>2026-05-04T11:55:25.999Z</time></trkpt><trkpt lat="41.57535230760466" lon="21.419651982524485"><ele>1007.0</ele><time>2026-05-04T11:55:27.999Z</time></trkpt><trkpt lat="41.57534573021304" lon="21.419538416246468"><ele>1007.0</ele><time>2026-05-04T11:55:29.999Z</time></trkpt><trkpt lat="41.57533601750523" lon="21.419374238042835"><ele>1004.8</ele><time>2026-05-04T11:55:31.999Z</time></trkpt><trkpt lat="41.575327226198716" lon="21.419218572736913"><ele>1002.6</ele><time>2026-05-04T11:55:33.999Z</time></trkpt><trkpt lat="41.57531949758837" lon="21.41908636527781"><ele>1000.3999999999999</ele><time>2026-05-04T11:55:35.999Z</time></trkpt><trkpt lat="41.57531218857391" lon="21.418969973564806"><ele>998.1999999999999</ele><time>2026-05-04T11:55:37.999Z</time></trkpt><trkpt lat="41.575273156121" lon="21.41884360171176"><ele>996.0</ele><time>2026-05-04T11:55:39.999Z</time></trkpt><trkpt lat="41.5752419559049" lon="21.418727796272073"><ele>996.0</ele><time>2026-05-04T11:55:41.999Z</time></trkpt><trkpt lat="41.57521639707909" lon="21.418634117338208"><ele>995.9999999999999</ele><time>2026-05-04T11:55:43.999Z</time></trkpt><trkpt lat="41.575159017121976" lon="21.418557564410797"><ele>995.9999999999999</ele><time>2026-05-04T11:55:45.999Z</time></trkpt><trkpt lat="41.57506940440695" lon="21.418532690092476"><ele>996.0</ele><time>2026-05-04T11:55:48.999Z</time></trkpt><trkpt lat="41.57496263067978" lon="21.41841633518832"><ele>996.0</ele><time>2026-05-04T11:55:50.999Z</time></trkpt><trkpt lat="41.574899209906356" lon="21.41832353889422"><ele>996.0</ele><time>2026-05-04T11:55:51.999Z</time></trkpt><trkpt lat="41.57487536592354" lon="21.41819451918245"><ele>996.0</ele><time>2026-05-04T11:55:52.999Z</time></trkpt><trkpt lat="41.57482995806752" lon="21.41811159019243"><ele>996.0</ele><time>2026-05-04T11:55:53.999Z</time></trkpt><trkpt lat="41.57479169245242" lon="21.41804170522744"><ele>996.0</ele><time>2026-05-04T11:55:54.999Z</time></trkpt><trkpt lat="41.574740896091306" lon="21.4179468903151"><ele>996.0</ele><time>2026-05-04T11:55:56.999Z</time></trkpt><trkpt lat="41.57466783604817" lon="21.41789070688875"><ele>996.0</ele><time>2026-05-04T11:55:58.999Z</time></trkpt><trkpt lat="41.57457369074491" lon="21.417808223816284"><ele>994.8333333333334</ele><time>2026-05-04T11:56:00.999Z</time></trkpt><trkpt lat="41.57450670263967" lon="21.4177501092403"><ele>993.6666666666667</ele><time>2026-05-04T11:56:01.999Z</time></trkpt><trkpt lat="41.57444543832746" lon="21.417690040899874"><ele>992.5</ele><time>2026-05-04T11:56:02.999Z</time></trkpt><trkpt lat="41.57438496789199" lon="21.417631007080367"><ele>991.3333333333334</ele><time>2026-05-04T11:56:03.999Z</time></trkpt><trkpt lat="41.57429532260675" lon="21.41754352949855"><ele>990.1666666666667</ele><time>2026-05-04T11:56:05.999Z</time></trkpt><trkpt lat="41.57425043978053" lon="21.417427314726954"><ele>989.0</ele><time>2026-05-04T11:56:07.999Z</time></trkpt><trkpt lat="41.574217612311884" lon="21.41734576693027"><ele>989.0000000000001</ele><time>2026-05-04T11:56:08.999Z</time></trkpt><trkpt lat="41.57418542158197" lon="21.417258915293832"><ele>989.0</ele><time>2026-05-04T11:56:09.999Z</time></trkpt><trkpt lat="41.574152949654014" lon="21.417172124212968"><ele>989.0</ele><time>2026-05-04T11:56:10.999Z</time></trkpt><trkpt lat="41.574061494079054" lon="21.41714453241436"><ele>989.0</ele><time>2026-05-04T11:56:11.999Z</time></trkpt><trkpt lat="41.57403399830696" lon="21.417007911166273"><ele>989.0000000000001</ele><time>2026-05-04T11:56:13.999Z</time></trkpt><trkpt lat="41.57404965423181" lon="21.416898693173078"><ele>989.0</ele><time>2026-05-04T11:56:15.999Z</time></trkpt><trkpt lat="41.57408999335982" lon="21.416757544061173"><ele>989.1666666666667</ele><time>2026-05-04T11:56:17.999Z</time></trkpt><trkpt lat="41.57412591846668" lon="21.41668706845973"><ele>989.3333333333334</ele><time>2026-05-04T11:56:18.999Z</time></trkpt><trkpt lat="41.57417289701847" lon="21.41658415412498"><ele>989.5</ele><time>2026-05-04T11:56:20.999Z</time></trkpt><trkpt lat="41.574235642071855" lon="21.416517251447935"><ele>989.6666666666667</ele><time>2026-05-04T11:56:22.999Z</time></trkpt><trkpt lat="41.5742949748001" lon="21.41642501870002"><ele>989.8333333333334</ele><time>2026-05-04T11:56:25.999Z</time></trkpt><trkpt lat="41.57436152911967" lon="21.416390577073784"><ele>990.0</ele><time>2026-05-04T11:56:27.999Z</time></trkpt><trkpt lat="41.57446176259297" lon="21.416352338211695"><ele>989.0</ele><time>2026-05-04T11:56:29.999Z</time></trkpt><trkpt lat="41.57453644803262" lon="21.416330128742157"><ele>988.0</ele><time>2026-05-04T11:56:36.999Z</time></trkpt><trkpt lat="41.57460017819275" lon="21.41631149421262"><ele>987.0</ele><time>2026-05-04T11:56:40.998Z</time></trkpt><trkpt lat="41.574682469220534" lon="21.416304569157155"><ele>986.0</ele><time>2026-05-04T11:56:44.998Z</time></trkpt><trkpt lat="41.574777965252125" lon="21.416311601094666"><ele>985.0</ele><time>2026-05-04T11:56:47.998Z</time></trkpt><trkpt lat="41.57484888101992" lon="21.41631693881963"><ele>984.0</ele><time>2026-05-04T11:56:49.998Z</time></trkpt><trkpt lat="41.57494134298444" lon="21.416328504581198"><ele>987.6666666666666</ele><time>2026-05-04T11:56:54Z</time></trkpt><trkpt lat="41.5750175453675" lon="21.41633857629006"><ele>991.3333333333333</ele><time>2026-05-04T11:56:56Z</time></trkpt><trkpt lat="41.57509805102069" lon="21.416344705128914"><ele>995.0</ele><time>2026-05-04T11:57:00Z</time></trkpt><trkpt lat="41.57518666638154" lon="21.41634541790151"><ele>998.6666666666666</ele><time>2026-05-04T11:57:03Z</time></trkpt><trkpt lat="41.575248916789576" lon="21.416362858419227"><ele>1002.3333333333333</ele><time>2026-05-04T11:57:05Z</time></trkpt><trkpt lat="41.57532038628622" lon="21.4163546050306"><ele>1006.0</ele><time>2026-05-04T11:57:08Z</time></trkpt><trkpt lat="41.575400365126036" lon="21.41635920129074"><ele>1007.9999999999999</ele><time>2026-05-04T11:57:11Z</time></trkpt><trkpt lat="41.57547971579775" lon="21.416369414805448"><ele>1010.0</ele><time>2026-05-04T11:57:14Z</time></trkpt><trkpt lat="41.57555673955698" lon="21.416379009073342"><ele>1012.0</ele><time>2026-05-04T11:57:19Z</time></trkpt><trkpt lat="41.575633665148494" lon="21.416396610902776"><ele>1014.0</ele><time>2026-05-04T11:57:22Z</time></trkpt><trkpt lat="41.57571102368026" lon="21.416414077663706"><ele>1015.9999999999999</ele><time>2026-05-04T11:57:25Z</time></trkpt><trkpt lat="41.57577794443667" lon="21.41645509880147"><ele>1018.0</ele><time>2026-05-04T11:57:28Z</time></trkpt><trkpt lat="41.57585679837114" lon="21.416472093573596"><ele>1017.9999999999999</ele><time>2026-05-04T11:57:30.999Z</time></trkpt><trkpt lat="41.57592700014118" lon="21.416469624474484"><ele>1018.0</ele><time>2026-05-04T11:57:33.999Z</time></trkpt><trkpt lat="41.57599803641066" lon="21.416478231615184"><ele>1018.0</ele><time>2026-05-04T11:57:36.999Z</time></trkpt><trkpt lat="41.5760832448142" lon="21.416482987904878"><ele>1018.0</ele><time>2026-05-04T11:57:39.999Z</time></trkpt><trkpt lat="41.57616402119449" lon="21.416465909396532"><ele>1017.9999999999999</ele><time>2026-05-04T11:57:42.999Z</time></trkpt><trkpt lat="41.57622773339653" lon="21.416469775929208"><ele>1018.0</ele><time>2026-05-04T11:57:44.999Z</time></trkpt><trkpt lat="41.57631440030383" lon="21.41645921634058"><ele>1016.9999999999999</ele><time>2026-05-04T11:57:47.999Z</time></trkpt><trkpt lat="41.576386399535245" lon="21.416447364818836"><ele>1016.0</ele><time>2026-05-04T11:57:50.999Z</time></trkpt><trkpt lat="41.576467440627326" lon="21.41642999084771"><ele>1015.0</ele><time>2026-05-04T11:57:53.999Z</time></trkpt><trkpt lat="41.576548038511255" lon="21.416390656497295"><ele>1014.0</ele><time>2026-05-04T11:57:57.999Z</time></trkpt><trkpt lat="41.57661677120798" lon="21.416354895450045"><ele>1012.9999999999999</ele><time>2026-05-04T11:58:00.999Z</time></trkpt><trkpt lat="41.576697111177914" lon="21.4162769388173"><ele>1012.0</ele><time>2026-05-04T11:58:03.999Z</time></trkpt><trkpt lat="41.57675620088397" lon="21.416208120346887"><ele>1011.9999999999999</ele><time>2026-05-04T11:58:05.999Z</time></trkpt><trkpt lat="41.57681674368907" lon="21.416143681727206"><ele>1012.0</ele><time>2026-05-04T11:58:07.999Z</time></trkpt><trkpt lat="41.57687546409936" lon="21.41607203716893"><ele>1012.0</ele><time>2026-05-04T11:58:09.999Z</time></trkpt><trkpt lat="41.57694245333694" lon="21.416024277255357"><ele>1012.0</ele><time>2026-05-04T11:58:11.999Z</time></trkpt><trkpt lat="41.57701071211292" lon="21.415995732946833"><ele>1011.9999999999999</ele><time>2026-05-04T11:58:13.999Z</time></trkpt><trkpt lat="41.57709244799201" lon="21.415962278808287"><ele>1012.0</ele><time>2026-05-04T11:58:16.999Z</time></trkpt><trkpt lat="41.57716487132839" lon="21.41593641757656"><ele>1014.6666666666666</ele><time>2026-05-04T11:58:19.999Z</time></trkpt><trkpt lat="41.577235117686705" lon="21.415938790050575"><ele>1017.3333333333333</ele><time>2026-05-04T11:58:22.999Z</time></trkpt><trkpt lat="41.57729834494151" lon="21.415960449561442"><ele>1020.0</ele><time>2026-05-04T11:58:25.999Z</time></trkpt><trkpt lat="41.57736807944633" lon="21.415969065872698"><ele>1022.6666666666667</ele><time>2026-05-04T11:58:29.999Z</time></trkpt><trkpt lat="41.57745930410565" lon="21.415980178055744"><ele>1025.3333333333335</ele><time>2026-05-04T11:58:32.999Z</time></trkpt><trkpt lat="41.57753067907435" lon="21.415984513195074"><ele>1028.0</ele><time>2026-05-04T11:58:34.999Z</time></trkpt><trkpt lat="41.577648853342744" lon="21.416004115766125"><ele>1028.0</ele><time>2026-05-04T11:58:36.999Z</time></trkpt><trkpt lat="41.577716567707554" lon="21.416053357496565"><ele>1028.0</ele><time>2026-05-04T11:58:39.999Z</time></trkpt><trkpt lat="41.57780461288878" lon="21.4160694419766"><ele>1028.0</ele><time>2026-05-04T11:58:42.999Z</time></trkpt><trkpt lat="41.57785673854812" lon="21.416128165003443"><ele>1028.0</ele><time>2026-05-04T11:58:45.999Z</time></trkpt><trkpt lat="41.577927797487675" lon="21.416168388780754"><ele>1028.0</ele><time>2026-05-04T11:58:49.999Z</time></trkpt><trkpt lat="41.577998803149306" lon="21.416224373844553"><ele>1028.0</ele><time>2026-05-04T11:58:53.999Z</time></trkpt><trkpt lat="41.57808468441504" lon="21.416316811787517"><ele>1028.1666666666667</ele><time>2026-05-04T11:58:56.999Z</time></trkpt><trkpt lat="41.578157896976734" lon="21.416308595458435"><ele>1028.3333333333335</ele><time>2026-05-04T11:58:59Z</time></trkpt><trkpt lat="41.57823158809783" lon="21.41630032527161"><ele>1028.5</ele><time>2026-05-04T11:59:01Z</time></trkpt><trkpt lat="41.57831198985137" lon="21.416291269810728"><ele>1028.6666666666667</ele><time>2026-05-04T11:59:03Z</time></trkpt><trkpt lat="41.5783858622784" lon="21.416261938221403"><ele>1028.8333333333333</ele><time>2026-05-04T11:59:05Z</time></trkpt><trkpt lat="41.578464074574356" lon="21.416287557137718"><ele>1029.0</ele><time>2026-05-04T11:59:07Z</time></trkpt><trkpt lat="41.578540981792706" lon="21.416313299467348"><ele>1031.3333333333333</ele><time>2026-05-04T11:59:09Z</time></trkpt><trkpt lat="41.57860896239961" lon="21.416340269643303"><ele>1033.6666666666667</ele><time>2026-05-04T11:59:11Z</time></trkpt><trkpt lat="41.578675836999984" lon="21.41634707965286"><ele>1036.0</ele><time>2026-05-04T11:59:13Z</time></trkpt><trkpt lat="41.57875526531634" lon="21.41633469784258"><ele>1038.3333333333335</ele><time>2026-05-04T11:59:16Z</time></trkpt><trkpt lat="41.5788400591707" lon="21.416312162173575"><ele>1040.6666666666667</ele><time>2026-05-04T11:59:19Z</time></trkpt><trkpt lat="41.57890765592897" lon="21.41628287865473"><ele>1043.0</ele><time>2026-05-04T11:59:21Z</time></trkpt><trkpt lat="41.57898366891979" lon="21.416250641101943"><ele>1043.0</ele><time>2026-05-04T11:59:23Z</time></trkpt><trkpt lat="41.57905266847262" lon="21.41619998965935"><ele>1043.0</ele><time>2026-05-04T11:59:25Z</time></trkpt><trkpt lat="41.579130621294716" lon="21.416120462938352"><ele>1043.0</ele><time>2026-05-04T11:59:27Z</time></trkpt><trkpt lat="41.57921870216384" lon="21.416112799554217"><ele>1043.0</ele><time>2026-05-04T11:59:29Z</time></trkpt><trkpt lat="41.57926474234123" lon="21.4160219524362"><ele>1043.0</ele><time>2026-05-04T11:59:32Z</time></trkpt><trkpt lat="41.579323389916176" lon="21.41598953732535"><ele>1043.0</ele><time>2026-05-04T11:59:34Z</time></trkpt><trkpt lat="41.57940521104105" lon="21.415965571777054"><ele>1043.0</ele><time>2026-05-04T11:59:37Z</time></trkpt><trkpt lat="41.579468502802" lon="21.415944395666482"><ele>1043.0</ele><time>2026-05-04T11:59:39Z</time></trkpt><trkpt lat="41.579546887604295" lon="21.415909961095153"><ele>1043.0</ele><time>2026-05-04T11:59:41Z</time></trkpt><trkpt lat="41.57962791731659" lon="21.415892068633593"><ele>1043.0</ele><time>2026-05-04T11:59:43Z</time></trkpt><trkpt lat="41.579692039009586" lon="21.41589721833827"><ele>1043.0</ele><time>2026-05-04T11:59:45Z</time></trkpt><trkpt lat="41.57976476200233" lon="21.415885421371396"><ele>1043.0</ele><time>2026-05-04T11:59:48Z</time></trkpt><trkpt lat="41.57984524254839" lon="21.41588484543067"><ele>1043.0</ele><time>2026-05-04T11:59:51Z</time></trkpt><trkpt lat="41.5799206387066" lon="21.4158645623096"><ele>1045.0</ele><time>2026-05-04T11:59:54Z</time></trkpt><trkpt lat="41.58000256121636" lon="21.41589986798412"><ele>1047.0</ele><time>2026-05-04T11:59:57Z</time></trkpt><trkpt lat="41.58002371799726" lon="21.416009031579897"><ele>1049.0</ele><time>2026-05-04T12:00:00Z</time></trkpt><trkpt lat="41.57997518499233" lon="21.4160633317995"><ele>1051.0</ele><time>2026-05-04T12:00:02Z</time></trkpt><trkpt lat="41.57991365614547" lon="21.416082974652404"><ele>1053.0</ele><time>2026-05-04T12:00:05Z</time></trkpt><trkpt lat="41.57985333059994" lon="21.416117636248924"><ele>1055.0</ele><time>2026-05-04T12:00:07.999Z</time></trkpt><trkpt lat="41.57979069279582" lon="21.416140417866682"><ele>1057.0</ele><time>2026-05-04T12:00:09.999Z</time></trkpt><trkpt lat="41.579715824600896" lon="21.41619272509032"><ele>1057.0</ele><time>2026-05-04T12:00:11.999Z</time></trkpt><trkpt lat="41.57965055857279" lon="21.416266192065013"><ele>1057.0</ele><time>2026-05-04T12:00:13.999Z</time></trkpt><trkpt lat="41.57958846258865" lon="21.416309212896206"><ele>1057.0</ele><time>2026-05-04T12:00:14.999Z</time></trkpt><trkpt lat="41.57950682671555" lon="21.416396880841102"><ele>1057.0</ele><time>2026-05-04T12:00:16.999Z</time></trkpt><trkpt lat="41.57944516006192" lon="21.416481545244523"><ele>1057.0</ele><time>2026-05-04T12:00:18.999Z</time></trkpt><trkpt lat="41.57937284502942" lon="21.416573843973545"><ele>1057.0</ele><time>2026-05-04T12:00:20.999Z</time></trkpt><trkpt lat="41.57929654994398" lon="21.41668664265705"><ele>1059.4</ele><time>2026-05-04T12:00:22.999Z</time></trkpt><trkpt lat="41.579220664335544" lon="21.41679996500535"><ele>1061.8000000000002</ele><time>2026-05-04T12:00:24.999Z</time></trkpt><trkpt lat="41.5791538111447" lon="21.416895970058057"><ele>1064.2</ele><time>2026-05-04T12:00:26.999Z</time></trkpt><trkpt lat="41.57909363652354" lon="21.416993353566934"><ele>1066.6000000000001</ele><time>2026-05-04T12:00:28.999Z</time></trkpt><trkpt lat="41.5790205188739" lon="21.417094934706565"><ele>1069.0</ele><time>2026-05-04T12:00:30.999Z</time></trkpt><trkpt lat="41.57894677446324" lon="21.417186155613848"><ele>1071.0</ele><time>2026-05-04T12:00:32.999Z</time></trkpt><trkpt lat="41.57884926856698" lon="21.41724913476013"><ele>1073.0</ele><time>2026-05-04T12:00:34.999Z</time></trkpt><trkpt lat="41.5787624189241" lon="21.417307612641196"><ele>1075.0</ele><time>2026-05-04T12:00:36.999Z</time></trkpt><trkpt lat="41.578677510134256" lon="21.417361813496253"><ele>1077.0</ele><time>2026-05-04T12:00:38.999Z</time></trkpt><trkpt lat="41.578583819809765" lon="21.41742397594132"><ele>1079.0</ele><time>2026-05-04T12:00:40.999Z</time></trkpt><trkpt lat="41.57847022242711" lon="21.417488037492433"><ele>1079.0</ele><time>2026-05-04T12:00:42.999Z</time></trkpt><trkpt lat="41.57835908570646" lon="21.417555149359583"><ele>1079.0</ele><time>2026-05-04T12:00:44.999Z</time></trkpt><trkpt lat="41.57825506874491" lon="21.417623639668875"><ele>1079.0</ele><time>2026-05-04T12:00:46.999Z</time></trkpt><trkpt lat="41.57815928837017" lon="21.41768458453476"><ele>1079.0</ele><time>2026-05-04T12:00:48.999Z</time></trkpt><trkpt lat="41.57808163723812" lon="21.417727373649335"><ele>1079.0</ele><time>2026-05-04T12:00:50.999Z</time></trkpt><trkpt lat="41.578007710785" lon="21.417777231252675"><ele>1079.0</ele><time>2026-05-04T12:00:52.999Z</time></trkpt><trkpt lat="41.57798059267964" lon="21.417864596316367"><ele>1079.0</ele><time>2026-05-04T12:00:54.999Z</time></trkpt><trkpt lat="41.57802752522574" lon="21.41795489628922"><ele>1079.0</ele><time>2026-05-04T12:00:56.999Z</time></trkpt><trkpt lat="41.57804421483273" lon="21.418041604557462"><ele>1079.0</ele><time>2026-05-04T12:00:58.999Z</time></trkpt><trkpt lat="41.57817734717264" lon="21.418080704470114"><ele>1079.0</ele><time>2026-05-04T12:01:00.999Z</time></trkpt><trkpt lat="41.57827062184193" lon="21.41807354515265"><ele>1079.6000000000001</ele><time>2026-05-04T12:01:02.999Z</time></trkpt><trkpt lat="41.578369521801164" lon="21.41807843204829"><ele>1080.2</ele><time>2026-05-04T12:01:05Z</time></trkpt><trkpt lat="41.578459639051694" lon="21.418109734223936"><ele>1080.8000000000002</ele><time>2026-05-04T12:01:07Z</time></trkpt><trkpt lat="41.57853268869506" lon="21.418189596343318"><ele>1081.4</ele><time>2026-05-04T12:01:10Z</time></trkpt><trkpt lat="41.578586463658176" lon="21.418257941189637"><ele>1082.0</ele><time>2026-05-04T12:01:12Z</time></trkpt><trkpt lat="41.578676730121416" lon="21.418315766329574"><ele>1084.6666666666667</ele><time>2026-05-04T12:01:15Z</time></trkpt><trkpt lat="41.57874982936833" lon="21.41833115595232"><ele>1087.3333333333335</ele><time>2026-05-04T12:01:17Z</time></trkpt><trkpt lat="41.5788240626082" lon="21.418347797323765"><ele>1090.0</ele><time>2026-05-04T12:01:19Z</time></trkpt><trkpt lat="41.57890975611209" lon="21.418366543658617"><ele>1092.6666666666667</ele><time>2026-05-04T12:01:22Z</time></trkpt><trkpt lat="41.57897434280955" lon="21.418384639440447"><ele>1095.3333333333333</ele><time>2026-05-04T12:01:24Z</time></trkpt><trkpt lat="41.57906068373473" lon="21.418412556242025"><ele>1098.0</ele><time>2026-05-04T12:01:26Z</time></trkpt><trkpt lat="41.579136400850665" lon="21.418442793235407"><ele>1098.0</ele><time>2026-05-04T12:01:29Z</time></trkpt><trkpt lat="41.57920577899535" lon="21.41837977240229"><ele>1098.0</ele><time>2026-05-04T12:01:32Z</time></trkpt><trkpt lat="41.57921397444566" lon="21.418271380562725"><ele>1098.0</ele><time>2026-05-04T12:01:34Z</time></trkpt><trkpt lat="41.57923340216467" lon="21.418191316566464"><ele>1098.0</ele><time>2026-05-04T12:01:36Z</time></trkpt><trkpt lat="41.579265913029566" lon="21.418089753767894"><ele>1098.0</ele><time>2026-05-04T12:01:38Z</time></trkpt><trkpt lat="41.57930981222441" lon="21.417995431199788"><ele>1098.0</ele><time>2026-05-04T12:01:40Z</time></trkpt><trkpt lat="41.57937738801849" lon="21.417922755617855"><ele>1096.8333333333333</ele><time>2026-05-04T12:01:42Z</time></trkpt><trkpt lat="41.57944514539421" lon="21.4178675810977"><ele>1095.6666666666667</ele><time>2026-05-04T12:01:44Z</time></trkpt><trkpt lat="41.57950022725742" lon="21.417807667060075"><ele>1094.5</ele><time>2026-05-04T12:01:46Z</time></trkpt><trkpt lat="41.57956134106037" lon="21.417755906256577"><ele>1093.3333333333335</ele><time>2026-05-04T12:01:48Z</time></trkpt><trkpt lat="41.579635092414605" lon="21.41770085158137"><ele>1092.1666666666667</ele><time>2026-05-04T12:01:50Z</time></trkpt><trkpt lat="41.57970730079747" lon="21.417676939533496"><ele>1091.0</ele><time>2026-05-04T12:01:52Z</time></trkpt><trkpt lat="41.5797666994713" lon="21.417627212716102"><ele>1093.8333333333335</ele><time>2026-05-04T12:01:54Z</time></trkpt><trkpt lat="41.579823055032634" lon="21.417585555148463"><ele>1096.6666666666667</ele><time>2026-05-04T12:01:56Z</time></trkpt><trkpt lat="41.57988498930643" lon="21.417565473767965"><ele>1099.5</ele><time>2026-05-04T12:01:58Z</time></trkpt><trkpt lat="41.579964927825216" lon="21.417566558991854"><ele>1102.3333333333333</ele><time>2026-05-04T12:02:00Z</time></trkpt><trkpt lat="41.58004105468077" lon="21.417584340477156"><ele>1105.1666666666665</ele><time>2026-05-04T12:02:02Z</time></trkpt><trkpt lat="41.58013504447544" lon="21.417612757287"><ele>1108.0</ele><time>2026-05-04T12:02:04Z</time></trkpt><trkpt lat="41.580206455596475" lon="21.417654487518682"><ele>1108.0</ele><time>2026-05-04T12:02:06Z</time></trkpt><trkpt lat="41.58026527386869" lon="21.41770922359847"><ele>1108.0</ele><time>2026-05-04T12:02:08Z</time></trkpt><trkpt lat="41.58034365056695" lon="21.41779187600253"><ele>1108.0</ele><time>2026-05-04T12:02:10Z</time></trkpt><trkpt lat="41.58040808930326" lon="21.41787586389076"><ele>1108.0</ele><time>2026-05-04T12:02:12Z</time></trkpt><trkpt lat="41.58048080076222" lon="21.41797010751994"><ele>1108.0</ele><time>2026-05-04T12:02:14Z</time></trkpt><trkpt lat="41.58053411878497" lon="21.41803341398213"><ele>1108.0</ele><time>2026-05-04T12:02:15Z</time></trkpt><trkpt lat="41.58059397226018" lon="21.41808678703112"><ele>1109.6</ele><time>2026-05-04T12:02:16Z</time></trkpt><trkpt lat="41.580643314726395" lon="21.41813992380196"><ele>1111.1999999999998</ele><time>2026-05-04T12:02:17Z</time></trkpt><trkpt lat="41.580723326666615" lon="21.418240519350046"><ele>1112.8</ele><time>2026-05-04T12:02:19Z</time></trkpt><trkpt lat="41.58081421279952" lon="21.418354844425803"><ele>1114.3999999999999</ele><time>2026-05-04T12:02:21Z</time></trkpt><trkpt lat="41.580899156908515" lon="21.41843437834264"><ele>1116.0</ele><time>2026-05-04T12:02:23Z</time></trkpt><trkpt lat="41.58097825056497" lon="21.418492864573953"><ele>1116.0</ele><time>2026-05-04T12:02:25Z</time></trkpt><trkpt lat="41.58104641833475" lon="21.41856480672273"><ele>1116.0</ele><time>2026-05-04T12:02:27Z</time></trkpt><trkpt lat="41.581116151815635" lon="21.418627482149873"><ele>1116.0</ele><time>2026-05-04T12:02:29Z</time></trkpt><trkpt lat="41.58118406841054" lon="21.41869089760497"><ele>1116.0</ele><time>2026-05-04T12:02:31Z</time></trkpt><trkpt lat="41.581244523047054" lon="21.418742050083214"><ele>1116.0</ele><time>2026-05-04T12:02:33Z</time></trkpt><trkpt lat="41.581291625083814" lon="21.418810022256977"><ele>1116.0</ele><time>2026-05-04T12:02:35Z</time></trkpt><trkpt lat="41.581386138445886" lon="21.418876840533784"><ele>1116.1666666666667</ele><time>2026-05-04T12:02:37Z</time></trkpt><trkpt lat="41.581447480736344" lon="21.418896811248473"><ele>1116.3333333333333</ele><time>2026-05-04T12:02:38Z</time></trkpt><trkpt lat="41.581509633988716" lon="21.41891716959416"><ele>1116.5</ele><time>2026-05-04T12:02:39Z</time></trkpt><trkpt lat="41.581616414103195" lon="21.418952145504036"><ele>1116.6666666666665</ele><time>2026-05-04T12:02:40.999Z</time></trkpt><trkpt lat="41.58171342849406" lon="21.418983922625078"><ele>1116.8333333333333</ele><time>2026-05-04T12:02:42.999Z</time></trkpt><trkpt lat="41.58179831876711" lon="21.418999839454106"><ele>1117.0</ele><time>2026-05-04T12:02:44.999Z</time></trkpt><trkpt lat="41.581889814537156" lon="21.419002315223256"><ele>1117.0</ele><time>2026-05-04T12:02:46.999Z</time></trkpt><trkpt lat="41.58198656220754" lon="21.41903281133712"><ele>1117.0</ele><time>2026-05-04T12:02:48.999Z</time></trkpt><trkpt lat="41.58208454897176" lon="21.419059500482803"><ele>1117.0</ele><time>2026-05-04T12:02:50.999Z</time></trkpt><trkpt lat="41.582185422575655" lon="21.419066063060765"><ele>1117.0</ele><time>2026-05-04T12:02:52.999Z</time></trkpt><trkpt lat="41.58228775310594" lon="21.41906290615708"><ele>1117.0</ele><time>2026-05-04T12:02:54.999Z</time></trkpt><trkpt lat="41.58239049307551" lon="21.419069174953194"><ele>1118.0</ele><time>2026-05-04T12:02:56.999Z</time></trkpt><trkpt lat="41.58249474645458" lon="21.419129719250027"><ele>1119.0</ele><time>2026-05-04T12:02:58.999Z</time></trkpt><trkpt lat="41.58257525542438" lon="21.419127788222863"><ele>1120.0</ele><time>2026-05-04T12:03:00.999Z</time></trkpt><trkpt lat="41.58264725117011" lon="21.419124942418982"><ele>1121.0</ele><time>2026-05-04T12:03:02.999Z</time></trkpt><trkpt lat="41.58273671114083" lon="21.41912458568849"><ele>1122.0</ele><time>2026-05-04T12:03:04.999Z</time></trkpt><trkpt lat="41.58280555519707" lon="21.419120179781366"><ele>1123.0</ele><time>2026-05-04T12:03:06.999Z</time></trkpt><trkpt lat="41.58289957131264" lon="21.419107334290004"><ele>1123.5</ele><time>2026-05-04T12:03:10.001Z</time></trkpt><trkpt lat="41.58299298312392" lon="21.41910916439595"><ele>1124.0</ele><time>2026-05-04T12:03:12.001Z</time></trkpt><trkpt lat="41.58308366176252" lon="21.419086128485784"><ele>1124.5</ele><time>2026-05-04T12:03:14.001Z</time></trkpt><trkpt lat="41.583176256561096" lon="21.419091212951603"><ele>1125.0</ele><time>2026-05-04T12:03:16.001Z</time></trkpt><trkpt lat="41.58325586752764" lon="21.41907751101408"><ele>1125.5</ele><time>2026-05-04T12:03:18.001Z</time></trkpt><trkpt lat="41.583333460822224" lon="21.41904829575486"><ele>1126.0</ele><time>2026-05-04T12:03:20.001Z</time></trkpt><trkpt lat="41.58341971036214" lon="21.41903634317243"><ele>1126.0</ele><time>2026-05-04T12:03:22.001Z</time></trkpt><trkpt lat="41.583513052346966" lon="21.419030680862235"><ele>1126.0</ele><time>2026-05-04T12:03:24.001Z</time></trkpt><trkpt lat="41.58359723733642" lon="21.419014032599257"><ele>1126.0</ele><time>2026-05-04T12:03:26.001Z</time></trkpt><trkpt lat="41.58368087515382" lon="21.419010339395275"><ele>1126.0</ele><time>2026-05-04T12:03:28.001Z</time></trkpt><trkpt lat="41.583761833169305" lon="21.41898190843807"><ele>1126.0</ele><time>2026-05-04T12:03:32Z</time></trkpt><trkpt lat="41.58385186213377" lon="21.418973555049497"><ele>1126.0</ele><time>2026-05-04T12:03:35Z</time></trkpt><trkpt lat="41.583927438756035" lon="21.419029842196814"><ele>1128.6666666666665</ele><time>2026-05-04T12:03:38Z</time></trkpt><trkpt lat="41.58400754361969" lon="21.41905416613146"><ele>1131.3333333333333</ele><time>2026-05-04T12:03:41Z</time></trkpt><trkpt lat="41.58408664819656" lon="21.41909680076763"><ele>1134.0</ele><time>2026-05-04T12:03:44Z</time></trkpt><trkpt lat="41.58417629602134" lon="21.419127700370197"><ele>1136.6666666666667</ele><time>2026-05-04T12:03:48Z</time></trkpt><trkpt lat="41.58426208786625" lon="21.419129054585927"><ele>1139.3333333333335</ele><time>2026-05-04T12:03:51Z</time></trkpt><trkpt lat="41.584342586524315" lon="21.419121358266192"><ele>1142.0</ele><time>2026-05-04T12:03:54Z</time></trkpt><trkpt lat="41.584380070356566" lon="21.419032972245052"><ele>1142.0</ele><time>2026-05-04T12:03:57Z</time></trkpt><trkpt lat="41.584404957293984" lon="21.41892525431235"><ele>1142.0</ele><time>2026-05-04T12:04:03Z</time></trkpt><trkpt lat="41.58445044433548" lon="21.418858131073463"><ele>1142.0</ele><time>2026-05-04T12:04:06Z</time></trkpt><trkpt lat="41.584501227479244" lon="21.41880829290762"><ele>1142.0</ele><time>2026-05-04T12:04:08Z</time></trkpt><trkpt lat="41.584545322503644" lon="21.418719685817624"><ele>1142.0</ele><time>2026-05-04T12:04:10Z</time></trkpt><trkpt lat="41.5846049694996" lon="21.41863990550751"><ele>1142.0</ele><time>2026-05-04T12:04:12Z</time></trkpt><trkpt lat="41.58465489445069" lon="21.4185676787654"><ele>1145.8333333333335</ele><time>2026-05-04T12:04:15Z</time></trkpt><trkpt lat="41.584711773232954" lon="21.41848247284511"><ele>1149.6666666666667</ele><time>2026-05-04T12:04:19Z</time></trkpt><trkpt lat="41.58476746819409" lon="21.418415988153015"><ele>1153.5</ele><time>2026-05-04T12:04:21Z</time></trkpt><trkpt lat="41.58482135789524" lon="21.41834729841116"><ele>1157.3333333333333</ele><time>2026-05-04T12:04:24Z</time></trkpt><trkpt lat="41.58487268717481" lon="21.41825094967628"><ele>1161.1666666666665</ele><time>2026-05-04T12:04:27Z</time></trkpt><trkpt lat="41.58492836861092" lon="21.418173990677477"><ele>1165.0</ele><time>2026-05-04T12:04:29Z</time></trkpt><trkpt lat="41.58496386469534" lon="21.41809495112192"><ele>1165.0</ele><time>2026-05-04T12:04:32Z</time></trkpt><trkpt lat="41.585023514625284" lon="21.41801870277917"><ele>1165.0</ele><time>2026-05-04T12:04:35Z</time></trkpt><trkpt lat="41.58508899662825" lon="21.417936900449202"><ele>1165.0</ele><time>2026-05-04T12:04:39Z</time></trkpt><trkpt lat="41.58515226191678" lon="21.417868502697097"><ele>1165.0</ele><time>2026-05-04T12:04:42Z</time></trkpt><trkpt lat="41.58520810546113" lon="21.417813360644967"><ele>1165.0</ele><time>2026-05-04T12:04:44Z</time></trkpt><trkpt lat="41.58526618499739" lon="21.41775851984796"><ele>1165.0</ele><time>2026-05-04T12:04:48Z</time></trkpt><trkpt lat="41.58533781761276" lon="21.417700642161893"><ele>1168.142857142857</ele><time>2026-05-04T12:04:50.999Z</time></trkpt><trkpt lat="41.58539449690098" lon="21.417658008233666"><ele>1171.2857142857142</ele><time>2026-05-04T12:04:52.999Z</time></trkpt><trkpt lat="41.58547808873962" lon="21.41763148114252"><ele>1174.4285714285716</ele><time>2026-05-04T12:04:55.999Z</time></trkpt><trkpt lat="41.585546790624555" lon="21.417601276834354"><ele>1177.5714285714284</ele><time>2026-05-04T12:04:58.999Z</time></trkpt><trkpt lat="41.585614675573474" lon="21.417566771226067"><ele>1180.7142857142858</ele><time>2026-05-04T12:05:01.999Z</time></trkpt><trkpt lat="41.58568686710029" lon="21.417550807495722"><ele>1183.857142857143</ele><time>2026-05-04T12:05:04.999Z</time></trkpt><trkpt lat="41.585750278726735" lon="21.41751385589747"><ele>1187.0</ele><time>2026-05-04T12:05:06.999Z</time></trkpt><trkpt lat="41.585811216062815" lon="21.417486400759906"><ele>1187.0000000000002</ele><time>2026-05-04T12:05:09.999Z</time></trkpt><trkpt lat="41.585881372553125" lon="21.417468188085508"><ele>1187.0</ele><time>2026-05-04T12:05:12.999Z</time></trkpt><trkpt lat="41.58592947477883" lon="21.41740930383071"><ele>1187.0</ele><time>2026-05-04T12:05:14.999Z</time></trkpt><trkpt lat="41.5859184427504" lon="21.417299596675523"><ele>1187.0</ele><time>2026-05-04T12:05:18.001Z</time></trkpt><trkpt lat="41.585885378665054" lon="21.41722624068248"><ele>1187.0</ele><time>2026-05-04T12:05:20.001Z</time></trkpt><trkpt lat="41.58587573888669" lon="21.417141551505484"><ele>1187.0000000000002</ele><time>2026-05-04T12:05:22.001Z</time></trkpt><trkpt lat="41.58595388701696" lon="21.417117507290204"><ele>1187.0</ele><time>2026-05-04T12:05:25.001Z</time></trkpt><trkpt lat="41.58600161823701" lon="21.41720495345685"><ele>1187.0</ele><time>2026-05-04T12:05:27.001Z</time></trkpt><trkpt lat="41.5860302558654" lon="21.41730865989083"><ele>1187.0</ele><time>2026-05-04T12:05:30.001Z</time></trkpt><trkpt lat="41.586078487024196" lon="21.417405333673848"><ele>1187.0</ele><time>2026-05-04T12:05:33.001Z</time></trkpt><trkpt lat="41.5861080943068" lon="21.417479876709606"><ele>1187.0</ele><time>2026-05-04T12:05:36.001Z</time></trkpt><trkpt lat="41.58612856492768" lon="21.417568384363182"><ele>1187.0</ele><time>2026-05-04T12:05:39.001Z</time></trkpt><trkpt lat="41.586082960154265" lon="21.417664170808123"><ele>1187.0</ele><time>2026-05-04T12:05:42.001Z</time></trkpt><trkpt lat="41.58599790066283" lon="21.41772566938401"><ele>1187.0</ele><time>2026-05-04T12:05:45Z</time></trkpt><trkpt lat="41.58593821291067" lon="21.417778672526445"><ele>1187.0</ele><time>2026-05-04T12:05:47Z</time></trkpt><trkpt lat="41.5858770334413" lon="21.41784708818361"><ele>1187.0</ele><time>2026-05-04T12:05:49Z</time></trkpt><trkpt lat="41.58582776939843" lon="21.417930849054166"><ele>1187.0</ele><time>2026-05-04T12:05:51Z</time></trkpt><trkpt lat="41.58577963124757" lon="21.41802775364063"><ele>1187.0</ele><time>2026-05-04T12:05:54Z</time></trkpt><trkpt lat="41.585733714604565" lon="21.418128046046093"><ele>1187.0</ele><time>2026-05-04T12:05:57Z</time></trkpt><trkpt lat="41.585702434158826" lon="21.418204129233622"><ele>1188.5714285714287</ele><time>2026-05-04T12:06:00Z</time></trkpt><trkpt lat="41.585680276940025" lon="21.41831423574377"><ele>1190.142857142857</ele><time>2026-05-04T12:06:02.999Z</time></trkpt><trkpt lat="41.58564974450046" lon="21.418394137233538"><ele>1191.7142857142858</ele><time>2026-05-04T12:06:04.999Z</time></trkpt><trkpt lat="41.585642554926096" lon="21.418485503847844"><ele>1193.2857142857142</ele><time>2026-05-04T12:06:07.999Z</time></trkpt><trkpt lat="41.58563233665435" lon="21.418583734144622"><ele>1194.857142857143</ele><time>2026-05-04T12:06:10.999Z</time></trkpt><trkpt lat="41.58564098503514" lon="21.41867560315937"><ele>1196.4285714285716</ele><time>2026-05-04T12:06:12.999Z</time></trkpt><trkpt lat="41.585653302291206" lon="21.418785484214578"><ele>1198.0</ele><time>2026-05-04T12:06:14.999Z</time></trkpt><trkpt lat="41.58567485002126" lon="21.418878920427286"><ele>1198.0</ele><time>2026-05-04T12:06:16.999Z</time></trkpt><trkpt lat="41.58573763301845" lon="21.418910872077177"><ele>1198.0</ele><time>2026-05-04T12:06:19.999Z</time></trkpt><trkpt lat="41.58575370661329" lon="21.41880549115085"><ele>1198.0</ele><time>2026-05-04T12:06:23.999Z</time></trkpt><trkpt lat="41.58577650221094" lon="21.4187262063864"><ele>1198.0</ele><time>2026-05-04T12:06:27.999Z</time></trkpt><trkpt lat="41.585807672716115" lon="21.418636054069793"><ele>1198.0</ele><time>2026-05-04T12:06:30.999Z</time></trkpt><trkpt lat="41.58584422876411" lon="21.41855900707061"><ele>1198.0</ele><time>2026-05-04T12:06:34.999Z</time></trkpt><trkpt lat="41.58590499521148" lon="21.418496167421594"><ele>1198.0</ele><time>2026-05-04T12:06:37.999Z</time></trkpt><trkpt lat="41.58595697545638" lon="21.41843781613044"><ele>1198.0</ele><time>2026-05-04T12:06:40.999Z</time></trkpt><trkpt lat="41.586030684208936" lon="21.41839246351224"><ele>1198.0</ele><time>2026-05-04T12:06:43.999Z</time></trkpt><trkpt lat="41.58611538931288" lon="21.418328385479825"><ele>1198.0</ele><time>2026-05-04T12:06:44.999Z</time></trkpt><trkpt lat="41.586188773285144" lon="21.41828765641596"><ele>1198.0</ele><time>2026-05-04T12:06:46.999Z</time></trkpt><trkpt lat="41.58626698319106" lon="21.418263477415046"><ele>1198.0</ele><time>2026-05-04T12:06:49.999Z</time></trkpt><trkpt lat="41.5863645540481" lon="21.41824024402673"><ele>1198.0</ele><time>2026-05-04T12:07:43Z</time></trkpt><trkpt lat="41.58644430375437" lon="21.418215516742634"><ele>1201.5</ele><time>2026-05-04T12:07:45Z</time></trkpt><trkpt lat="41.58653082698643" lon="21.418192939879756"><ele>1205.0</ele><time>2026-05-04T12:07:47Z</time></trkpt><trkpt lat="41.5866060644052" lon="21.418151704278173"><ele>1208.5</ele><time>2026-05-04T12:07:49Z</time></trkpt><trkpt lat="41.586680655836055" lon="21.41809710922868"><ele>1212.0</ele><time>2026-05-04T12:07:51Z</time></trkpt><trkpt lat="41.586744884043185" lon="21.41802822474165"><ele>1215.5</ele><time>2026-05-04T12:07:53Z</time></trkpt><trkpt lat="41.58675676846183" lon="21.41791323240941"><ele>1219.0</ele><time>2026-05-04T12:07:55Z</time></trkpt><trkpt lat="41.5867347607485" lon="21.4177791939728"><ele>1219.0</ele><time>2026-05-04T12:07:57Z</time></trkpt><trkpt lat="41.586734690628894" lon="21.417632746590517"><ele>1219.0</ele><time>2026-05-04T12:07:59Z</time></trkpt><trkpt lat="41.58671612726774" lon="21.417484348129257"><ele>1219.0</ele><time>2026-05-04T12:08:01Z</time></trkpt><trkpt lat="41.586722056689496" lon="21.417345799378133"><ele>1219.0</ele><time>2026-05-04T12:08:03Z</time></trkpt><trkpt lat="41.5867261599711" lon="21.417246196692233"><ele>1219.0</ele><time>2026-05-04T12:08:04.999Z</time></trkpt><trkpt lat="41.586703121831" lon="21.417165913686524"><ele>1218.0</ele><time>2026-05-04T12:08:06.999Z</time></trkpt><trkpt lat="41.58667826969654" lon="21.417044742454078"><ele>1217.0</ele><time>2026-05-04T12:08:08.999Z</time></trkpt><trkpt lat="41.5866667556837" lon="21.416944706951256"><ele>1216.0</ele><time>2026-05-04T12:08:10.999Z</time></trkpt><trkpt lat="41.586704829942626" lon="21.416845454288328"><ele>1215.0</ele><time>2026-05-04T12:08:13.999Z</time></trkpt><trkpt lat="41.58674274231517" lon="21.416776419115926"><ele>1214.0</ele><time>2026-05-04T12:08:15.999Z</time></trkpt><trkpt lat="41.58680560325979" lon="21.416734893806552"><ele>1213.0</ele><time>2026-05-04T12:08:17.999Z</time></trkpt><trkpt lat="41.58685371009901" lon="21.416672464685885"><ele>1213.0</ele><time>2026-05-04T12:08:19.999Z</time></trkpt><trkpt lat="41.58690612141824" lon="21.41658335291251"><ele>1213.0</ele><time>2026-05-04T12:08:22.999Z</time></trkpt><trkpt lat="41.58695743973499" lon="21.416508965035792"><ele>1213.0</ele><time>2026-05-04T12:08:25.999Z</time></trkpt><trkpt lat="41.58700450863226" lon="21.416413980718676"><ele>1213.0</ele><time>2026-05-04T12:08:27.999Z</time></trkpt><trkpt lat="41.587030747403496" lon="21.416326829187593"><ele>1213.0</ele><time>2026-05-04T12:08:29.999Z</time></trkpt><trkpt lat="41.587078602693474" lon="21.416261443006892"><ele>1213.0</ele><time>2026-05-04T12:08:33.999Z</time></trkpt><trkpt lat="41.58711741854308" lon="21.416168244556108"><ele>1217.2</ele><time>2026-05-04T12:08:36.999Z</time></trkpt><trkpt lat="41.587152672502974" lon="21.416059632114493"><ele>1221.4</ele><time>2026-05-04T12:08:40.999Z</time></trkpt><trkpt lat="41.58720212714039" lon="21.4159588053329"><ele>1225.6000000000001</ele><time>2026-05-04T12:08:42.999Z</time></trkpt><trkpt lat="41.58728748940431" lon="21.415857254618142"><ele>1229.8</ele><time>2026-05-04T12:08:44.999Z</time></trkpt><trkpt lat="41.587365416084204" lon="21.41576265646139"><ele>1234.0</ele><time>2026-05-04T12:08:46.999Z</time></trkpt><trkpt lat="41.58742376819567" lon="21.41571149960972"><ele>1234.0</ele><time>2026-05-04T12:08:48.999Z</time></trkpt><trkpt lat="41.58748976640002" lon="21.415656333994654"><ele>1234.0</ele><time>2026-05-04T12:08:50.999Z</time></trkpt><trkpt lat="41.587585615151426" lon="21.415553801356687"><ele>1234.0</ele><time>2026-05-04T12:08:52.999Z</time></trkpt><trkpt lat="41.58762053470338" lon="21.415402982548812"><ele>1234.0</ele><time>2026-05-04T12:08:54.999Z</time></trkpt><trkpt lat="41.587639620691405" lon="21.4153200132744"><ele>1234.0</ele><time>2026-05-04T12:08:55.999Z</time></trkpt><trkpt lat="41.58767233730177" lon="21.4152064776962"><ele>1234.8333333333333</ele><time>2026-05-04T12:08:56.999Z</time></trkpt><trkpt lat="41.587697269725936" lon="21.41512700794546"><ele>1235.6666666666665</ele><time>2026-05-04T12:08:57.999Z</time></trkpt><trkpt lat="41.58776328218373" lon="21.415019353594865"><ele>1236.5</ele><time>2026-05-04T12:08:59.999Z</time></trkpt><trkpt lat="41.587825728339375" lon="21.414975102783966"><ele>1237.3333333333333</ele><time>2026-05-04T12:09:00.999Z</time></trkpt><trkpt lat="41.58789407177893" lon="21.41495047283529"><ele>1238.1666666666667</ele><time>2026-05-04T12:09:01.999Z</time></trkpt><trkpt lat="41.58798585761661" lon="21.414952239061414"><ele>1239.0</ele><time>2026-05-04T12:09:03.999Z</time></trkpt><trkpt lat="41.588080674839134" lon="21.41490585385391"><ele>1239.0</ele><time>2026-05-04T12:09:06.999Z</time></trkpt><trkpt lat="41.588135669933344" lon="21.414834598256675"><ele>1239.0</ele><time>2026-05-04T12:09:08.999Z</time></trkpt><trkpt lat="41.588215542240455" lon="21.414737657724373"><ele>1239.0</ele><time>2026-05-04T12:09:10.999Z</time></trkpt><trkpt lat="41.588250273523116" lon="21.414649287565098"><ele>1239.0</ele><time>2026-05-04T12:09:11.999Z</time></trkpt><trkpt lat="41.588268613345" lon="21.414539966089944"><ele>1239.0</ele><time>2026-05-04T12:09:13.999Z</time></trkpt><trkpt lat="41.58833592754205" lon="21.414464637745873"><ele>1239.0</ele><time>2026-05-04T12:09:15.999Z</time></trkpt><trkpt lat="41.58843655025122" lon="21.414394223948555"><ele>1239.0</ele><time>2026-05-04T12:09:17.999Z</time></trkpt><trkpt lat="41.58849891814497" lon="21.41436083214751"><ele>1239.0</ele><time>2026-05-04T12:09:18.999Z</time></trkpt><trkpt lat="41.58855878458783" lon="21.414319193775892"><ele>1239.0</ele><time>2026-05-04T12:09:19.999Z</time></trkpt><trkpt lat="41.58862165822444" lon="21.414287517503276"><ele>1239.0</ele><time>2026-05-04T12:09:20.999Z</time></trkpt><trkpt lat="41.58868610668542" lon="21.41428572372439"><ele>1239.0</ele><time>2026-05-04T12:09:21.999Z</time></trkpt><trkpt lat="41.58878693355633" lon="21.41433838999642"><ele>1239.0</ele><time>2026-05-04T12:09:23.999Z</time></trkpt><trkpt lat="41.58886613525363" lon="21.414361960015544"><ele>1239.0</ele><time>2026-05-04T12:09:25.999Z</time></trkpt><trkpt lat="41.588968833690835" lon="21.414373552522584"><ele>1239.0</ele><time>2026-05-04T12:09:28Z</time></trkpt><trkpt lat="41.589057243412846" lon="21.414321277419077"><ele>1239.0</ele><time>2026-05-04T12:09:30Z</time></trkpt><trkpt lat="41.58911966906907" lon="21.414194540859935"><ele>1239.0</ele><time>2026-05-04T12:09:32Z</time></trkpt><trkpt lat="41.58914566794522" lon="21.414065962997153"><ele>1239.0</ele><time>2026-05-04T12:09:34Z</time></trkpt><trkpt lat="41.589133955444666" lon="21.41392669080456"><ele>1237.0</ele><time>2026-05-04T12:09:36Z</time></trkpt><trkpt lat="41.58911962031381" lon="21.413786022153698"><ele>1235.0</ele><time>2026-05-04T12:09:38Z</time></trkpt><trkpt lat="41.589116313664505" lon="21.41364254133062"><ele>1233.0</ele><time>2026-05-04T12:09:40Z</time></trkpt><trkpt lat="41.58908057578577" lon="21.41351067074717"><ele>1231.0</ele><time>2026-05-04T12:09:42Z</time></trkpt><trkpt lat="41.58908743417047" lon="21.41340529564918"><ele>1229.0</ele><time>2026-05-04T12:09:44Z</time></trkpt><trkpt lat="41.589109430488556" lon="21.41328037616563"><ele>1229.0</ele><time>2026-05-04T12:09:46Z</time></trkpt><trkpt lat="41.589110191210445" lon="21.413174419129042"><ele>1229.0</ele><time>2026-05-04T12:09:47Z</time></trkpt><trkpt lat="41.589107173003285" lon="21.413078063810797"><ele>1229.0</ele><time>2026-05-04T12:09:48Z</time></trkpt><trkpt lat="41.5891214165874" lon="21.41292068222767"><ele>1229.0</ele><time>2026-05-04T12:09:50Z</time></trkpt><trkpt lat="41.58915149314007" lon="21.412785909824485"><ele>1229.0</ele><time>2026-05-04T12:09:52Z</time></trkpt><trkpt lat="41.589157689102166" lon="21.41268987825497"><ele>1229.0</ele><time>2026-05-04T12:09:54Z</time></trkpt><trkpt lat="41.589153285876854" lon="21.41259806254498"><ele>1230.0</ele><time>2026-05-04T12:09:56Z</time></trkpt><trkpt lat="41.589134043713685" lon="21.41251262836554"><ele>1230.0</ele><time>2026-05-04T12:09:58Z</time></trkpt></trkseg></trk></gpx>